Return to Metar
METAR CYNL 220100Z AUTO 22003KT 9SM OVC036 M13/M15 A3002 RMK AO1 PRESFR SLP225
METAR CYNL 220000Z AUTO 24005KT 9SM FEW009 OVC037 M13/M15 A3005 RMK AO1 PRESFR SLP237
SPECI CYNL 212315Z AUTO 24004KT 9SM SCT008 OVC038 M12/M14 A3009 RMK AO1 SLP249
SPECI CYNL 212312Z AUTO 25005KT 9SM BKN008 OVC038 M12/M14 A3009 RMK AO1 SLP250
SPECI CYNL 212310Z AUTO 25005KT 9SM SCT008 OVC038 M12/M14 A3009 RMK AO1 SLP250
SPECI CYNL 212308Z AUTO 25005KT 9SM BKN008 OVC038 M12/M14 A3009 RMK AO1 SLP250
SPECI CYNL 212307Z AUTO 25006KT 9SM SCT008 OVC038 M12/M14 A3009 RMK AO1 SLP251
SPECI CYNL 212306Z AUTO 25005KT 9SM BKN008 OVC038 M12/M14 A3009 RMK AO1 SLP251
SPECI CYNL 212304Z AUTO 25006KT 9SM SCT008 OVC038 M12/M14 A3009 RMK AO1 SLP250
METAR CYNL 212300Z AUTO 25005KT 9SM BKN008 OVC038 M12/M14 A3009 RMK AO1 SLP250
METAR CYNL 212200Z AUTO 25005KT 9SM BKN008 OVC009 M12/M14 A3011 RMK AO1 SLP257
METAR CYNL 212100Z AUTO 25006KT 9SM BKN009 OVC033 M11/M13 A3012 RMK AO1 SLP260
SPECI CYNL 212051Z AUTO 27005KT 9SM BKN009 OVC033 M11/M13 A3012 RMK AO1 SLP261
SPECI CYNL 212050Z AUTO 27006KT 9SM SCT008 BKN010 OVC033 M11/M13 A3012 RMK AO1 SLP261
SPECI CYNL 212031Z AUTO 25005KT 9SM BKN009 OVC031 M11/M13 A3012 RMK AO1 SLP262
SPECI CYNL 212030Z AUTO 26006KT 9SM SCT008 BKN011 OVC031 M11/M13 A3012 RMK AO1 SLP262
SPECI CYNL 212029Z AUTO 26005KT 9SM BKN009 OVC031 M11/M13 A3012 RMK AO1 SLP262
SPECI CYNL 212027Z AUTO 26005KT 9SM SCT009 BKN011 OVC031 M11/M13 A3012 RMK AO1 SLP262
SPECI CYNL 212020Z AUTO 26004KT 9SM FEW008 SCT011 OVC031 M11/M13 A3012 RMK AO1 SLP263
METAR CYNL 212000Z AUTO 26005KT 9SM SCT011 OVC030 M11/M13 A3013 RMK AO1 SLP264
SPECI CYNL 211927Z AUTO 29005KT 9SM OVC030 M11/M13 A3014 RMK AO1 SLP267
SPECI CYNL 211910Z AUTO 29005KT 9SM SCT010 OVC029 M11/M13 A3014 RMK AO1 SLP269
SPECI CYNL 211906Z AUTO 28007KT 9SM SCT010 OVC030 M11/M13 A3015 RMK AO1 SLP270
METAR CYNL 211900Z AUTO 28007KT 9SM BKN010 OVC029 M11/M13 A3015 RMK AO1 SLP270
SPECI CYNL 211844Z AUTO 27006KT 9SM BKN011 OVC029 M11/M13 A3015 RMK AO1 SLP270
METAR CYNL 211800Z AUTO 28007KT 9SM FEW011 OVC029 M11/M13 A3016 RMK AO1 SLP273
SPECI CYNL 211717Z AUTO 29006KT 9SM OVC025 M12/M14 A3017 RMK AO1 SLP279
METAR CYNL 211700Z AUTO 30007KT 9SM OVC023 M12/M14 A3017 RMK AO1 SLP277
METAR CYNL 211600Z AUTO ///// 9SM OVC023 M12/M14 A3017 RMK AO1 SLP276
METAR CYNL 211500Z AUTO ///// 9SM OVC023 M13/M15 A3016 RMK AO1 SLP273
METAR CYNL 211400Z AUTO ///// 9SM OVC024 M13/M15 A3015 RMK AO1 SLP269
SPECI CYNL 211359Z AUTO ///// 9SM OVC024 M13/M15 A3015 RMK AO1 SLP269
METAR CYNL 211300Z AUTO ///// 9SM OVC026 M14/M16 A3014 RMK AO1 SLP269
METAR CYNL 211200Z AUTO 30006KT 9SM OVC027 M15/M17 A3015 RMK AO1 SLP271
METAR CYNL 211100Z AUTO 30008KT 9SM OVC029 M16/M18 A3014 RMK AO1 SLP269
SPECI CYNL 211059Z AUTO 30007KT 9SM OVC029 M16/M18 A3014 RMK AO1 SLP269
SPECI CYNL 211010Z AUTO ///// 9SM SCT004 M17/M19 A3013 RMK AO1 SLP267
METAR CYNL 211000Z AUTO ///// 9SM VV003 M17/M19 A3012 RMK AO1 SLP265
SPECI CYNL 210931Z AUTO ///// 9SM VV004 M17/M19 A3012 RMK AO1 PRESRR SLP262
SPECI CYNL 210920Z AUTO ///// 9SM FEW004 M17/M19 A3011 RMK AO1 PRESRR SLP262
METAR CYNL 210900Z AUTO ///// 9SM CLR M17/M19 A3011 RMK AO1 PRESRR SLP260
METAR CYNL 210800Z AUTO ///// 9SM CLR M16/M19 A3008 RMK AO1 PRESRR SLP250
METAR CYNL 210700Z AUTO ///// 9SM CLR M16/M18 A3005 RMK AO1 PRESRR SLP237
METAR CYNL 210600Z AUTO ///// 9SM CLR M15/M18 A3003 RMK AO1 PRESRR SLP229
SPECI CYNL 210534Z AUTO ///// 9SM SCT010 M15/M17 A3002 RMK AO1 PRESRR SLP226
METAR CYNL 210500Z AUTO ///// 9SM OVC010 M14/M16 A3000 RMK AO1 PRESRR SLP220
METAR CYNL 210400Z AUTO ///// 9SM BKN010 OVC038 M13/M16 A2997 RMK AO1 PRESRR SLP211
SPECI CYNL 210353Z AUTO ///// 9SM BKN011 OVC039 M13/M16 A2997 RMK AO1 SLP211
METAR CYNL 210300Z AUTO ///// 9SM OVC036 M13/M15 A2994 RMK AO1 SLP203
METAR CYNL 210200Z AUTO ///// 9SM FEW009 OVC039 M13/M15 A2993 RMK AO1 PRESRR SLP197
SPECI CYNL 210153Z AUTO ///// 9SM FEW009 OVC039 M13/M15 A2993 RMK AO1 PRESRR SLP197
METAR CYNL 210100Z AUTO ///// 9SM OVC039 M13/M15 A2991 RMK AO1 PRESRR SLP190
METAR CYNL 210000Z AUTO ///// 9SM OVC035 M13/M16 A2987 RMK AO1 PRESRR SLP178
METAR CYNL 202300Z AUTO ///// 9SM OVC036 M14/M16 A2984 RMK AO1 PRESRR SLP169
METAR CYNL 202200Z AUTO 33004KT 9SM OVC042 M13/M15 A2980 RMK AO1 PRESRR SLP154
METAR CYNL 202100Z AUTO 35005KT 9SM OVC041 M12/M14 A2976 RMK AO1 PRESRR SLP139
SPECI CYNL 202032Z AUTO 34005KT 9SM SCT013 OVC039 M12/M14 A2974 RMK AO1 PRESRR SLP135
SPECI CYNL 202027Z AUTO 35005KT 8SM FEW006 SCT013 BKN015 M12/M14 A2974 RMK AO1 PRESRR SLP134
SPECI CYNL 202019Z AUTO 01005KT 8SM VV014 M12/M14 A2974 RMK AO1 PRESRR SLP132
SPECI CYNL 202013Z AUTO 01007KT 6SM SCT005 BKN015 OVC037 M12/M14 A2974 RMK AO1 PRESRR SLP132
SPECI CYNL 202011Z AUTO 00006KT 5SM SCT005 BKN011 BKN016 M12/M14 A2974 RMK AO1 PRESRR SLP132
SPECI CYNL 202009Z AUTO 00006KT 3SM BKN005 BKN013 OVC037 M12/M14 A2974 RMK AO1 PRESRR SLP132
SPECI CYNL 202007Z AUTO 35005KT 2 1/2SM BKN005 BKN012 OVC015 M12/M14 A2974 RMK AO1 PRESRR SLP132
METAR CYNL 202000Z AUTO 00006KT 6SM BKN005 OVC018 M12/M14 A2974 RMK AO1 PRESRR SLP132
METAR CYNL 201900Z AUTO 00007KT 6SM OVC005 M13/M15 A2971 RMK AO1 PRESRR SLP127
SPECI CYNL 201830Z AUTO 03004KT 9SM OVC005 M13/M15 A2970 RMK AO1 PRESRR SLP123
METAR CYNL 201800Z AUTO ///// 8SM OVC004 M13/M15 A2969 RMK AO1 PRESRR SLP119
SPECI CYNL 201755Z AUTO ///// 6SM OVC004 M13/M15 A2968 RMK AO1 PRESRR SLP119
SPECI CYNL 201711Z AUTO 03007KT 9SM OVC005 M14/M16 A2966 RMK AO1 PRESRR SLP112
METAR CYNL 201700Z AUTO 03007KT 8SM OVC004 M14/M17 A2965 RMK AO1 PRESRR SLP111
SPECI CYNL 201604Z AUTO 04006KT 9SM OVC004 M16/M18 A2963 RMK AO1 PRESRR SLP104
METAR CYNL 201600Z AUTO 04007KT 9SM OVC005 M16/M18 A2963 RMK AO1 PRESRR SLP103
SPECI CYNL 201539Z AUTO 03006KT 9SM OVC005 M16/M19 A2962 RMK AO1 SLP100
METAR CYNL 201500Z AUTO 03006KT 9SM OVC004 M16/M19 A2960 RMK AO1 SLP094
SPECI CYNL 201456Z AUTO 04008KT 7SM OVC004 M16/M19 A2960 RMK AO1 PRESRR SLP092
SPECI CYNL 201448Z AUTO 03007KT 9SM OVC005 M16/M19 A2960 RMK AO1 PRESRR SLP092
SPECI CYNL 201405Z AUTO 05008KT 3SM OVC004 M16/M19 A2958 RMK AO1 PRESRR SLP087
SPECI CYNL 201404Z AUTO 06008KT 2 1/2SM OVC004 M16/M19 A2958 RMK AO1 PRESRR SLP087
METAR CYNL 201400Z AUTO 05007KT 9SM OVC004 M17/M19 A2958 RMK AO1 PRESRR SLP087
SPECI CYNL 201343Z AUTO 05005KT 3SM OVC004 M17/M19 A2957 RMK AO1 SLP082
SPECI CYNL 201342Z AUTO 06005KT 2 1/2SM OVC004 M17/M19 A2957 RMK AO1 SLP082
SPECI CYNL 201322Z AUTO 06008KT 9SM OVC004 M17/M19 A2955 RMK AO1 SLP077
METAR CYNL 201300Z AUTO 05006KT 9SM OVC005 M17/M19 A2955 RMK AO1 SLP075
SPECI CYNL 201218Z AUTO 05006KT 9SM OVC005 M17/M19 A2955 RMK AO1 SLP076
METAR CYNL 201200Z AUTO 06006KT 6SM OVC004 M17/M19 A2955 RMK AO1 SLP075
METAR CYNL 201100Z AUTO 06006KT 6SM OVC003 M17/M20 A2955 RMK AO1 SLP074
SPECI CYNL 201054Z AUTO 07006KT 3SM OVC003 M17/M20 A2954 RMK AO1 SLP072
SPECI CYNL 201051Z AUTO 06007KT 2 1/2SM OVC003 M17/M20 A2954 RMK AO1 SLP072
SPECI CYNL 201048Z AUTO 07007KT 3SM OVC003 M17/M20 A2954 RMK AO1 SLP072
SPECI CYNL 201046Z AUTO 06007KT 2 1/2SM OVC003 M17/M20 A2954 RMK AO1 SLP072
SPECI CYNL 201032Z AUTO 06007KT 3SM OVC003 M17/M20 A2954 RMK AO1 SLP071
SPECI CYNL 201027Z AUTO ///// 2SM OVC004 M17/M20 A2954 RMK AO1 SLP071
SPECI CYNL 201026Z AUTO 06008KT 1 3/4SM OVC004 M17/M20 A2954 RMK AO1 SLP071
SPECI CYNL 201025Z AUTO ///// 2SM OVC004 M17/M20 A2954 RMK AO1 SLP071
METAR CYNL 201000Z AUTO ///// 9SM OVC004 M17/M19 A2954 RMK AO1 SLP072
SPECI CYNL 200951Z AUTO ///// 4SM OVC004 M17/M19 A2955 RMK AO1 SLP073
SPECI CYNL 200950Z AUTO ///// 2 1/2SM OVC004 M17/M19 A2955 RMK AO1 SLP073
SPECI CYNL 200906Z AUTO 07007KT 3SM OVC003 M17/M20 A2954 RMK AO1 SLP073
SPECI CYNL 200903Z AUTO 07007KT 2SM OVC003 M18/M20 A2954 RMK AO1 SLP073
METAR CYNL 200900Z AUTO 07007KT 1 3/4SM OVC003 M18/M20 A2955 RMK AO1 SLP074
SPECI CYNL 200856Z AUTO 07006KT 2SM OVC003 M18/M20 A2955 RMK AO1 SLP074
SPECI CYNL 200855Z AUTO 07006KT 1 3/4SM OVC002 M18/M20 A2955 RMK AO1 SLP074
SPECI CYNL 200854Z AUTO 07005KT 2SM OVC002 M18/M20 A2955 RMK AO1 SLP074
SPECI CYNL 200851Z AUTO 07006KT 1 3/4SM OVC002 M18/M20 A2955 RMK AO1 SLP074
SPECI CYNL 200845Z AUTO 07005KT 2SM OVC002 M18/M21 A2955 RMK AO1 SLP074
SPECI CYNL 200842Z AUTO 07006KT 1 3/4SM OVC002 M18/M21 A2955 RMK AO1 SLP074
SPECI CYNL 200836Z AUTO 06005KT 2SM OVC002 M18/M21 A2954 RMK AO1 SLP074
SPECI CYNL 200830Z AUTO 06006KT 1 1/2SM OVC002 M18/M21 A2955 RMK AO1 SLP074
SPECI CYNL 200826Z AUTO 07006KT 1SM OVC002 M18/M21 A2955 RMK AO1 SLP075
SPECI CYNL 200821Z AUTO 06006KT 1 1/4SM OVC003 M19/M21 A2955 RMK AO1 SLP075
SPECI CYNL 200820Z AUTO 07006KT 1 1/2SM OVC003 M19/M21 A2955 RMK AO1 SLP075
SPECI CYNL 200818Z AUTO 06005KT 2 1/2SM OVC003 M19/M21 A2955 RMK AO1 SLP075
METAR CYNL 200800Z AUTO 07005KT 3SM OVC003 M19/M22 A2955 RMK AO1 SLP076
SPECI CYNL 200743Z AUTO 07004KT 3SM OVC003 M19/M22 A2955 RMK AO1 SLP078
SPECI CYNL 200736Z AUTO 06004KT 3SM OVC002 M20/M22 A2955 RMK AO1 SLP079
SPECI CYNL 200733Z AUTO 06004KT 2SM OVC002 M20/M23 A2955 RMK AO1 SLP079
SPECI CYNL 200727Z AUTO 06004KT 1 1/2SM OVC002 M20/M23 A2955 RMK AO1 SLP079
SPECI CYNL 200726Z AUTO 06003KT 1 1/4SM OVC002 M20/M23 A2955 RMK AO1 SLP079
SPECI CYNL 200711Z AUTO 06004KT 1 3/4SM OVC002 M20/M23 A2956 RMK AO1 SLP081
SPECI CYNL 200704Z AUTO 07004KT 2 1/2SM OVC002 M20/M23 A2956 RMK AO1 SLP082
SPECI CYNL 200701Z AUTO 07003KT 2SM OVC003 M20/M23 A2956 RMK AO1 SLP082
METAR CYNL 200700Z AUTO 06004KT 1 1/2SM OVC003 M20/M23 A2956 RMK AO1 SLP082
SPECI CYNL 200657Z AUTO 05004KT 1 1/4SM OVC003 M20/M23 A2956 RMK AO1 SLP083
SPECI CYNL 200652Z AUTO 07005KT 1 3/4SM OVC003 M20/M23 A2956 RMK AO1 SLP082
SPECI CYNL 200649Z AUTO 07005KT 2SM OVC003 M20/M23 A2956 RMK AO1 SLP082
SPECI CYNL 200648Z AUTO 07006KT 1 3/4SM OVC003 M20/M23 A2956 RMK AO1 SLP083
SPECI CYNL 200647Z AUTO 07006KT 2SM OVC003 M20/M23 A2956 RMK AO1 SLP083
SPECI CYNL 200641Z AUTO 06006KT 1 3/4SM OVC003 M20/M23 A2956 RMK AO1 SLP083
SPECI CYNL 200638Z AUTO 07006KT 2 1/2SM OVC003 M20/M23 A2956 RMK AO1 SLP084
SPECI CYNL 200636Z AUTO 06006KT 3SM OVC003 M20/M23 A2956 RMK AO1 SLP084
SPECI CYNL 200631Z AUTO 07005KT 2 1/2SM OVC003 M20/M23 A2957 RMK AO1 SLP085
SPECI CYNL 200630Z AUTO 07006KT 1 1/2SM OVC003 M20/M23 A2957 RMK AO1 SLP085
SPECI CYNL 200628Z AUTO 07006KT 1 1/4SM OVC003 M20/M23 A2957 RMK AO1 SLP085
SPECI CYNL 200626Z AUTO 07005KT 2 1/2SM OVC003 M20/M23 A2957 RMK AO1 SLP085
SPECI CYNL 200618Z AUTO 07004KT 4SM OVC003 M21/M24 A2957 RMK AO1 SLP086
SPECI CYNL 200612Z AUTO 07004KT 2SM BKN003 OVC004 M21/M24 A2957 RMK AO1 SLP086
SPECI CYNL 200610Z AUTO 07005KT 1 3/4SM BKN003 OVC005 M21/M24 A2957 RMK AO1 SLP086
SPECI CYNL 200607Z AUTO 07005KT 2 1/2SM BKN003 OVC007 M21/M24 A2957 RMK AO1 SLP086
METAR CYNL 200600Z AUTO 06004KT 9SM BKN003 OVC007 M21/M24 A2957 RMK AO1 SLP087
SPECI CYNL 200547Z AUTO 07005KT 9SM BKN004 BKN007 M21/M24 A2958 RMK AO1 SLP090
METAR CYNL 200500Z AUTO 06005KT 9SM OVC007 M22/M25 A2957 RMK AO1 SLP090
METAR CYNL 200400Z AUTO 05003KT 9SM OVC008 M21/M24 A2959 RMK AO1 PRESFR SLP095
SPECI CYNL 200321Z AUTO 07003KT 9SM BKN008 M21/M24 A2961 RMK AO1 SLP104
SPECI CYNL 200311Z AUTO 06004KT 9SM SCT008 M21/M24 A2961 RMK AO1 SLP103
METAR CYNL 200300Z AUTO 07003KT 9SM BKN008 M20/M23 A2962 RMK AO1 SLP107
SPECI CYNL 200258Z AUTO 07003KT 9SM BKN008 M20/M23 A2962 RMK AO1 SLP107
SPECI CYNL 200232Z AUTO 05005KT 9SM SCT008 M20/M23 A2962 RMK AO1 SLP107
METAR CYNL 200200Z AUTO 05005KT 7SM OVC007 M20/M22 A2963 RMK AO1 SLP110
METAR CYNL 200100Z AUTO 06002KT 9SM SCT004 OVC008 M20/M23 A2964 RMK AO1 PRESFR SLP114
SPECI CYNL 200058Z AUTO 07002KT 9SM SCT004 OVC008 M20/M23 A2964 RMK AO1 PRESFR SLP114
SPECI CYNL 200010Z AUTO 02005KT 7SM OVC004 M19/M22 A2966 RMK AO1 PRESFR SLP120
METAR CYNL 200000Z AUTO 01004KT 9SM OVC005 M19/M22 A2967 RMK AO1 PRESFR SLP123
SPECI CYNL 192359Z AUTO 01004KT 9SM OVC005 M19/M22 A2967 RMK AO1 PRESFR SLP123
SPECI CYNL 192350Z AUTO 00005KT 6SM OVC004 M19/M22 A2967 RMK AO1 SLP123
SPECI CYNL 192338Z AUTO 00003KT 9SM OVC005 M19/M21 A2967 RMK AO1 SLP123
METAR CYNL 192300Z AUTO 25004KT 9SM OVC003 M18/M21 A2970 RMK AO1 SLP131
SPECI CYNL 192250Z AUTO 00000KT 4SM OVC003 M18/M21 A2969 RMK AO1 SLP128
SPECI CYNL 192244Z AUTO 31002KT 2 1/2SM BKN003 OVC006 M18/M21 A2969 RMK AO1 SLP127
SPECI CYNL 192228Z AUTO 27003KT 8SM BKN004 OVC006 M18/M21 A2970 RMK AO1 SLP132
METAR CYNL 192200Z AUTO 00000KT 9SM OVC006 M18/M21 A2970 RMK AO1 SLP131
METAR CYNL 192100Z AUTO 33005KT 9SM OVC005 M18/M21 A2971 RMK AO1 SLP136
METAR CYNL 192000Z AUTO 31005KT 9SM OVC006 M18/M21 A2973 RMK AO1 PRESFR SLP141
METAR CYNL 191900Z AUTO ///// 9SM OVC006 M18/M21 A2975 RMK AO1 SLP151
METAR CYNL 191800Z AUTO 31005KT 9SM OVC006 M19/M22 A2977 RMK AO1 SLP156
SPECI CYNL 191705Z AUTO 27006KT 9SM OVC005 M20/M23 A2977 RMK AO1 PRESFR SLP157
METAR CYNL 191700Z AUTO 27007KT 9SM OVC004 M20/M23 A2977 RMK AO1 PRESFR SLP156
SPECI CYNL 191659Z AUTO 26007KT 9SM OVC004 M20/M24 A2977 RMK AO1 PRESFR SLP156
METAR CYNL 191600Z AUTO 31005KT 9SM OVC006 M21/M24 A2980 RMK AO1 SLP166
METAR CYNL 191500Z AUTO 29007KT 9SM OVC006 M21/M24 A2979 RMK AO1 SLP162
SPECI CYNL 191433Z AUTO 30007KT 9SM SCT003 OVC005 M21/M24 A2979 RMK AO1 SLP161
SPECI CYNL 191403Z AUTO 28007KT 3SM OVC003 M21/M24 A2979 RMK AO1 SLP160
SPECI CYNL 191402Z AUTO 28008KT 2SM OVC003 M21/M24 A2979 RMK AO1 SLP160
SPECI CYNL 191401Z AUTO 28009KT 1 1/2SM OVC003 M21/M24 A2979 RMK AO1 SLP160
METAR CYNL 191400Z AUTO 28010KT 1 1/4SM OVC003 M21/M24 A2979 RMK AO1 SLP159
SPECI CYNL 191358Z AUTO 28008KT 1 1/2SM OVC003 M21/M24 A2979 RMK AO1 SLP158
SPECI CYNL 191353Z AUTO 28008KT 2 1/2SM OVC003 M21/M24 A2979 RMK AO1 SLP159
METAR CYNL 191300Z AUTO 29008KT 5SM OVC003 M21/M24 A2980 RMK AO1 SLP163
SPECI CYNL 191242Z AUTO 30008KT 3SM OVC003 M21/M24 A2980 RMK AO1 SLP164
SPECI CYNL 191239Z AUTO 29009KT 2 1/2SM OVC004 M22/M24 A2981 RMK AO1 SLP165
SPECI CYNL 191218Z AUTO 29008KT 4SM OVC004 M22/M25 A2982 RMK AO1 SLP169
SPECI CYNL 191216Z AUTO 30008KT 2 1/2SM OVC004 M22/M24 A2982 RMK AO1 SLP169
SPECI CYNL 191215Z AUTO 30008KT 2 1/2SM OVC005 M22/M24 A2982 RMK AO1 SLP169
METAR CYNL 191200Z AUTO 31007G15KT 3SM OVC006 M22/M25 A2982 RMK AO1 SLP168
SPECI CYNL 191116Z AUTO 30008KT 9SM OVC009 M21/M25 A2982 RMK AO1 SLP170
METAR CYNL 191100Z AUTO 30008KT 9SM BKN011 OVC015 M21/M25 A2982 RMK AO1 SLP168
SPECI CYNL 191049Z AUTO 30006KT 9SM FEW007 BKN012 OVC015 M22/M25 A2982 RMK AO1 SLP167
SPECI CYNL 191048Z AUTO 30008KT 9SM FEW007 SCT011 OVC015 M22/M25 A2982 RMK AO1 SLP167
SPECI CYNL 191046Z AUTO 29007KT 9SM FEW007 OVC014 M22/M25 A2981 RMK AO1 SLP167
SPECI CYNL 191037Z AUTO 29006KT 9SM SCT007 OVC016 M22/M25 A2982 RMK AO1 SLP168
METAR CYNL 191000Z AUTO 29007KT 9SM BKN007 OVC011 M21/M25 A2982 RMK AO1 SLP168
SPECI CYNL 190947Z AUTO 29010G18KT 9SM SCT007 BKN009 M22/M25 A2981 RMK AO1 SLP165
SPECI CYNL 190940Z AUTO 29010G18KT 9SM FEW003 SCT008 BKN011 M22/M25 A2981 RMK AO1 SLP166
SPECI CYNL 190938Z AUTO 29010G18KT 9SM FEW004 SCT008 BKN027 M22/M25 A2981 RMK AO1 SLP166
SPECI CYNL 190924Z AUTO 29012G21KT 9SM FEW003 SCT026 M22/M25 A2980 RMK AO1 SLP164
SPECI CYNL 190911Z AUTO 30010G17KT 4SM FEW005 OVC026 M21/M25 A2981 RMK AO1 SLP167
METAR CYNL 190900Z AUTO 30011G17KT 5SM OVC025 M22/M25 A2982 RMK AO1 SLP168
SPECI CYNL 190831Z AUTO 30009G17KT 8SM FEW004 BKN022 M22/M25 A2982 RMK AO1 SLP170
SPECI CYNL 190818Z AUTO 29009G17KT 6SM SCT004 M22/M25 A2980 RMK AO1 SLP165
METAR CYNL 190800Z AUTO 29011G18KT 5SM VV004 M21/M25 A2980 RMK AO1 SLP163
SPECI CYNL 190756Z AUTO 29011G18KT 7SM FEW003 M21/M25 A2980 RMK AO1 SLP164
METAR CYNL 190700Z AUTO 31007KT 9SM CLR M21/M24 A2980 RMK AO1 SLP162
METAR CYNL 190600Z AUTO ///// 9SM SCT004 M19/M22 A2980 RMK AO1 SLP161
SPECI CYNL 190558Z AUTO ///// 8SM SCT004 M19/M22 A2980 RMK AO1 SLP161
SPECI CYNL 190557Z AUTO ///// 9SM SCT004 BKN014 M19/M22 A2980 RMK AO1 SLP161
SPECI CYNL 190554Z AUTO ///// 9SM BKN004 M19/M22 A2980 RMK AO1 SLP160
SPECI CYNL 190550Z AUTO ///// 9SM SCT003 BKN005 BKN013 M19/M22 A2980 RMK AO1 SLP160
SPECI CYNL 190536Z AUTO ///// 5SM VV004 M19/M22 A2979 RMK AO1 SLP158
METAR CYNL 190500Z AUTO ///// 6SM FEW003 OVC014 M18/M21 A2979 RMK AO1 SLP159
SPECI CYNL 190412Z AUTO ///// 5SM FEW004 SCT011 OVC014 M17/M20 A2980 RMK AO1 SLP160
SPECI CYNL 190411Z AUTO ///// 5SM FEW004 SCT011 OVC015 M17/M20 A2980 RMK AO1 SLP160
METAR CYNL 190400Z AUTO ///// 5SM FEW003 OVC011 M17/M20 A2980 RMK AO1 SLP160
SPECI CYNL 190347Z AUTO 28007KT 5SM SCT003 OVC011 M17/M20 A2980 RMK AO1 SLP160
SPECI CYNL 190342Z AUTO 29006KT 4SM SCT003 BKN007 BKN011 M17/M20 A2980 RMK AO1 SLP160
SPECI CYNL 190320Z AUTO ///// 3SM BKN003 BKN011 OVC013 M17/M20 A2980 RMK AO1 SLP158
SPECI CYNL 190318Z AUTO ///// 2 1/2SM BKN003 BKN011 OVC013 M17/M20 A2980 RMK AO1 SLP158
SPECI CYNL 190314Z AUTO ///// 3SM SCT003 BKN007 BKN011 M17/M20 A2980 RMK AO1 SLP159
SPECI CYNL 190308Z AUTO ///// 2 1/2SM SCT003 BKN006 OVC011 M17/M20 A2980 RMK AO1 SLP158
SPECI CYNL 190307Z AUTO ///// 3SM SCT004 BKN006 OVC011 M17/M20 A2980 RMK AO1 SLP158
SPECI CYNL 190305Z AUTO ///// 2 1/2SM SCT004 BKN006 OVC011 M17/M20 A2980 RMK AO1 SLP158
SPECI CYNL 190304Z AUTO ///// 3SM SCT004 BKN008 OVC011 M17/M20 A2980 RMK AO1 SLP158
METAR CYNL 190300Z AUTO ///// 4SM FEW004 SCT006 OVC011 M17/M20 A2980 RMK AO1 SLP158
SPECI CYNL 190202Z AUTO ///// 5SM FEW003 SCT005 OVC012 M16/M19 A2979 RMK AO1 SLP156
METAR CYNL 190200Z AUTO ///// 4SM SCT003 BKN009 OVC012 M16/M19 A2979 RMK AO1 SLP156
SPECI CYNL 190154Z AUTO ///// 4SM SCT003 BKN005 OVC013 M16/M19 A2980 RMK AO1 SLP158
SPECI CYNL 190153Z AUTO ///// 4SM BKN004 OVC013 M16/M19 A2980 RMK AO1 SLP158
SPECI CYNL 190150Z AUTO ///// 3SM SCT003 BKN005 OVC013 M16/M19 A2980 RMK AO1 SLP158
SPECI CYNL 190149Z AUTO ///// 3SM BKN003 OVC013 M16/M19 A2980 RMK AO1 SLP158
SPECI CYNL 190148Z AUTO ///// 3SM SCT003 BKN005 OVC013 M16/M19 A2980 RMK AO1 SLP158
SPECI CYNL 190144Z AUTO ///// 2 1/2SM BKN004 OVC012 M16/M19 A2979 RMK AO1 SLP157
SPECI CYNL 190140Z AUTO ///// 2 1/2SM SCT003 BKN005 OVC012 M16/M19 A2979 RMK AO1 SLP157
SPECI CYNL 190133Z AUTO ///// 2SM BKN003 OVC012 M16/M18 A2979 RMK AO1 SLP155
SPECI CYNL 190131Z AUTO ///// 1 3/4SM BKN003 OVC012 M16/M18 A2979 RMK AO1 SLP156
SPECI CYNL 190129Z AUTO ///// 2SM BKN003 OVC012 M16/M18 A2979 RMK AO1 SLP156
SPECI CYNL 190124Z AUTO ///// 2SM SCT003 BKN005 OVC012 M16/M18 A2979 RMK AO1 SLP156
SPECI CYNL 190118Z AUTO ///// 2 1/2SM BKN003 OVC012 M16/M18 A2979 RMK AO1 SLP156
SPECI CYNL 190116Z AUTO ///// 2 1/2SM SCT003 BKN005 OVC012 M16/M18 A2979 RMK AO1 SLP156
SPECI CYNL 190114Z AUTO ///// 2 1/2SM SCT003 BKN006 OVC013 M16/M18 A2979 RMK AO1 SLP156
SPECI CYNL 190113Z AUTO ///// 2 1/2SM BKN003 BKN006 OVC013 M16/M18 A2979 RMK AO1 SLP156
SPECI CYNL 190111Z AUTO ///// 3SM BKN003 BKN010 OVC013 M15/M18 A2979 RMK AO1 SLP156
SPECI CYNL 190110Z AUTO ///// 2 1/2SM BKN004 OVC012 M15/M18 A2979 RMK AO1 SLP155
SPECI CYNL 190108Z AUTO ///// 2 1/2SM SCT003 BKN006 OVC013 M15/M18 A2979 RMK AO1 SLP155
SPECI CYNL 190103Z AUTO ///// 4SM SCT004 BKN006 OVC013 M15/M18 A2979 RMK AO1 SLP155
METAR CYNL 190100Z AUTO ///// 4SM FEW003 SCT006 BKN010 M15/M18 A2979 RMK AO1 SLP154
METAR CYNL 190000Z AUTO ///// 6SM FEW008 BKN011 OVC014 M15/M18 A2979 RMK AO1 SLP153
SPECI CYNL 182350Z AUTO ///// 6SM FEW008 BKN011 OVC014 M15/M18 A2978 RMK AO1 SLP153
METAR CYNL 182300Z AUTO ///// 9SM OVC011 M15/M17 A2977 RMK AO1 SLP148
METAR CYNL 182200Z AUTO ///// 9SM OVC012 M15/M18 A2976 RMK AO1 SLP145
METAR CYNL 182100Z AUTO ///// 9SM OVC010 M16/M19 A2975 RMK AO1 SLP143
METAR CYNL 182000Z AUTO ///// 8SM OVC011 M16/M19 A2974 RMK AO1 SLP141
SPECI CYNL 181926Z AUTO ///// 8SM BKN010 OVC013 M16/M19 A2974 RMK AO1 SLP141
SPECI CYNL 181925Z AUTO ///// 9SM BKN009 OVC013 M16/M19 A2974 RMK AO1 SLP141
SPECI CYNL 181910Z AUTO ///// 9SM BKN011 OVC021 M16/M19 A2973 RMK AO1 SLP139
METAR CYNL 181900Z AUTO ///// 9SM SCT015 BKN021 M16/M20 A2973 RMK AO1 SLP138
SPECI CYNL 181848Z AUTO ///// 9SM BKN021 M16/M20 A2973 RMK AO1 SLP138
METAR CYNL 181800Z AUTO ///// 9SM OVC043 M16/M20 A2973 RMK AO1 SLP138
METAR CYNL 181700Z AUTO ///// 6SM FEW008 SCT016 OVC041 M17/M20 A2973 RMK AO1 SLP140
SPECI CYNL 181628Z AUTO ///// 3SM SCT008 OVC039 M17/M20 A2973 RMK AO1 SLP138
SPECI CYNL 181602Z AUTO ///// 3SM VV009 M17/M21 A2973 RMK AO1 SLP139
SPECI CYNL 181601Z AUTO ///// 2 1/2SM VV009 M17/M21 A2973 RMK AO1 SLP139
METAR CYNL 181600Z AUTO ///// 3SM VV009 M17/M21 A2973 RMK AO1 SLP139
SPECI CYNL 181548Z AUTO ///// 4SM VV009 M17/M21 A2972 RMK AO1 SLP136
SPECI CYNL 181538Z AUTO ///// 3SM VV010 M17/M21 A2972 RMK AO1 SLP135
SPECI CYNL 181528Z AUTO ///// 3SM SCT010 OVC032 M17/M21 A2972 RMK AO1 SLP136
SPECI CYNL 181526Z AUTO ///// 2 1/2SM SCT010 OVC032 M17/M21 A2972 RMK AO1 SLP136
SPECI CYNL 181523Z AUTO ///// 3SM BKN010 OVC032 M17/M21 A2972 RMK AO1 SLP135
SPECI CYNL 181520Z AUTO ///// 2 1/2SM BKN010 OVC032 M17/M21 A2972 RMK AO1 SLP134
SPECI CYNL 181518Z AUTO ///// 3SM BKN010 OVC032 M17/M21 A2972 RMK AO1 SLP134
SPECI CYNL 181516Z AUTO ///// 3SM VV009 M17/M21 A2972 RMK AO1 SLP133
METAR CYNL 181500Z AUTO ///// 8SM VV012 M17/M21 A2972 RMK AO1 SLP133
SPECI CYNL 181457Z AUTO ///// 6SM VV010 M17/M21 A2972 RMK AO1 SLP133
SPECI CYNL 181453Z AUTO ///// 4SM BKN009 M17/M21 A2971 RMK AO1 SLP132
SPECI CYNL 181451Z AUTO ///// 3SM SCT008 BKN011 M17/M21 A2971 RMK AO1 SLP132
SPECI CYNL 181450Z AUTO ///// 2 1/2SM SCT009 BKN011 M17/M21 A2971 RMK AO1 SLP132
SPECI CYNL 181449Z AUTO ///// 2 1/2SM VV008 M17/M21 A2971 RMK AO1 SLP132
SPECI CYNL 181444Z AUTO ///// 8SM VV009 M18/M21 A2971 RMK AO1 SLP132
SPECI CYNL 181429Z AUTO ///// 6SM FEW007 SCT009 BKN014 M18/M21 A2971 RMK AO1 SLP131
SPECI CYNL 181413Z AUTO ///// 9SM VV010 M18/M21 A2971 RMK AO1 SLP132
SPECI CYNL 181407Z AUTO ///// 9SM BKN008 M18/M21 A2971 RMK AO1 SLP131
SPECI CYNL 181403Z AUTO ///// 9SM SCT006 BKN010 M18/M21 A2971 RMK AO1 SLP130
METAR CYNL 181400Z AUTO ///// 8SM VV006 M18/M21 A2970 RMK AO1 SLP130
SPECI CYNL 181358Z AUTO ///// 7SM VV006 M18/M21 A2971 RMK AO1 SLP129
SPECI CYNL 181356Z AUTO ///// 6SM FEW006 BKN010 M18/M21 A2971 RMK AO1 SLP130
SPECI CYNL 181354Z AUTO ///// 7SM FEW006 SCT010 M18/M21 A2971 RMK AO1 SLP130
SPECI CYNL 181352Z AUTO ///// 9SM SCT010 M18/M21 A2971 RMK AO1 SLP130
SPECI CYNL 181330Z AUTO ///// 9SM FEW006 SCT009 BKN013 M18/M21 A2970 RMK AO1 SLP129
SPECI CYNL 181328Z AUTO ///// 9SM SCT007 BKN015 M18/M21 A2971 RMK AO1 SLP129
SPECI CYNL 181327Z AUTO ///// 9SM FEW007 SCT008 BKN013 M18/M21 A2970 RMK AO1 SLP129
SPECI CYNL 181320Z AUTO ///// 5SM VV009 M18/M21 A2970 RMK AO1 SLP127
SPECI CYNL 181304Z AUTO ///// 7SM FEW006 SCT014 M18/M21 A2970 RMK AO1 SLP127
METAR CYNL 181300Z AUTO ///// 9SM FEW013 SCT027 M18/M21 A2970 RMK AO1 SLP127
SPECI CYNL 181240Z AUTO ///// 9SM FEW007 SCT027 M18/M21 A2970 RMK AO1 SLP124
SPECI CYNL 181229Z AUTO ///// 9SM FEW006 SCT009 BKN027 M18/M21 A2970 RMK AO1 SLP125
SPECI CYNL 181226Z AUTO ///// 6SM SCT006 M18/M21 A2969 RMK AO1 SLP124
SPECI CYNL 181216Z AUTO ///// 7SM VV009 M18/M21 A2969 RMK AO1 SLP124
SPECI CYNL 181212Z AUTO ///// 9SM SCT007 BKN010 M18/M21 A2969 RMK AO1 SLP123
SPECI CYNL 181201Z AUTO ///// 9SM SCT006 M18/M21 A2969 RMK AO1 SLP123
METAR CYNL 181200Z AUTO ///// 7SM FEW006 SCT008 BKN012 M18/M21 A2969 RMK AO1 SLP123
SPECI CYNL 181158Z AUTO ///// 6SM SCT007 BKN010 M18/M21 A2969 RMK AO1 SLP121
SPECI CYNL 181146Z AUTO ///// 9SM VV009 M18/M21 A2968 RMK AO1 SLP120
SPECI CYNL 181144Z AUTO ///// 9SM FEW009 M18/M21 A2969 RMK AO1 SLP120
METAR CYNL 181100Z AUTO ///// 9SM CLR M18/M22 A2967 RMK AO1 SLP116
METAR CYNL 181000Z AUTO ///// 9SM CLR M19/M22 A2967 RMK AO1 SLP115
METAR CYNL 180900Z AUTO ///// 9SM CLR M19/M23 A2966 RMK AO1 SLP110
SPECI CYNL 180801Z AUTO 28011G19KT 9SM SCT005 M20/M23 A2966 RMK AO1 SLP109
METAR CYNL 180800Z AUTO ///// 9SM BKN005 M20/M23 A2966 RMK AO1 SLP109
METAR CYNL 180700Z AUTO ///// 7SM VV005 M20/M23 A2964 RMK AO1 PRESRR SLP105
SPECI CYNL 180603Z AUTO 29012G21KT 8SM BKN005 M19/M23 A2962 RMK AO1 SLP098
METAR CYNL 180600Z AUTO 29011G20KT 9SM SCT006 M19/M23 A2962 RMK AO1 SLP097
SPECI CYNL 180554Z AUTO 29012KT 9SM SCT006 M19/M23 A2962 RMK AO1 PRESRR SLP096
METAR CYNL 180500Z AUTO 28010G16KT 5SM VV007 M19/M22 A2961 RMK AO1 PRESRR SLP094
SPECI CYNL 180442Z AUTO ///// 7SM VV006 M19/M22 A2960 RMK AO1 SLP091
SPECI CYNL 180430Z AUTO ///// 9SM FEW005 M19/M22 A2960 RMK AO1 SLP089
METAR CYNL 180400Z AUTO ///// 9SM CLR M19/M22 A2959 RMK AO1 SLP085
METAR CYNL 180300Z AUTO ///// 9SM CLR M19/M22 A2957 RMK AO1 PRESRR SLP079
METAR CYNL 180200Z AUTO ///// 9SM CLR M18/M21 A2955 RMK AO1 PRESRR SLP071
METAR CYNL 180100Z AUTO ///// 9SM FEW009 SCT016 M17/M20 A2953 RMK AO1 SLP062
SPECI CYNL 180057Z AUTO ///// 9SM FEW008 SCT016 M17/M20 A2953 RMK AO1 PRESRR SLP062
SPECI CYNL 180029Z AUTO ///// 5SM FEW008 OVC016 M17/M20 A2952 RMK AO1 PRESRR SLP058
METAR CYNL 180000Z AUTO ///// 8SM FEW010 BKN015 OVC018 M16/M19 A2951 RMK AO1 PRESRR SLP056
SPECI CYNL 172359Z AUTO ///// 6SM FEW010 BKN015 OVC018 M16/M19 A2951 RMK AO1 PRESRR SLP056
SPECI CYNL 172356Z AUTO ///// 2SM FEW010 OVC016 M16/M19 A2951 RMK AO1 PRESRR SLP056
SPECI CYNL 172352Z AUTO ///// 5SM FEW009 OVC017 M16/M19 A2951 RMK AO1 PRESRR SLP055
SPECI CYNL 172337Z AUTO ///// 5SM SCT011 BKN016 BKN026 M16/M19 A2950 RMK AO1 PRESRR SLP051
SPECI CYNL 172331Z AUTO ///// 3SM VV012 M15/M18 A2950 RMK AO1 PRESRR SLP050
SPECI CYNL 172330Z AUTO ///// 2 1/2SM VV012 M15/M18 A2950 RMK AO1 PRESRR SLP049
SPECI CYNL 172325Z AUTO ///// 3SM VV013 M15/M18 A2949 RMK AO1 PRESRR SLP049
SPECI CYNL 172324Z AUTO ///// 2 1/2SM FEW007 SCT014 BKN028 M15/M18 A2949 RMK AO1 PRESRR SLP048
SPECI CYNL 172314Z AUTO ///// 7SM SCT008 BKN028 M15/M18 A2948 RMK AO1 PRESRR SLP046
METAR CYNL 172300Z AUTO ///// 4SM FEW009 SCT018 OVC029 M15/M18 A2948 RMK AO1 PRESRR SLP045
SPECI CYNL 172256Z AUTO ///// 5SM FEW009 SCT019 BKN029 M15/M18 A2948 RMK AO1 SLP045
SPECI CYNL 172253Z AUTO ///// 5SM VV017 M15/M18 A2948 RMK AO1 SLP044
SPECI CYNL 172240Z AUTO ///// 5SM FEW008 SCT018 BKN031 M15/M18 A2948 RMK AO1 SLP042
SPECI CYNL 172239Z AUTO ///// 5SM FEW011 SCT018 BKN031 M15/M18 A2948 RMK AO1 SLP042
SPECI CYNL 172210Z AUTO ///// 5SM FEW009 SCT017 BKN021 M14/M17 A2946 RMK AO1 SLP036
SPECI CYNL 172207Z AUTO ///// 7SM FEW012 BKN020 M14/M18 A2946 RMK AO1 SLP036
SPECI CYNL 172201Z AUTO ///// 9SM FEW012 SCT016 BKN110 M14/M18 A2946 RMK AO1 SLP036
METAR CYNL 172200Z AUTO ///// 8SM FEW012 SCT015 BKN021 M14/M18 A2946 RMK AO1 SLP036
SPECI CYNL 172157Z AUTO ///// 7SM SCT012 BKN021 M14/M18 A2946 RMK AO1 SLP036
SPECI CYNL 172156Z AUTO ///// 7SM BKN013 M14/M18 A2946 RMK AO1 SLP036
SPECI CYNL 172154Z AUTO ///// 6SM FEW008 SCT012 BKN016 M14/M18 A2946 RMK AO1 SLP036
SPECI CYNL 172152Z AUTO ///// 4SM FEW009 BKN012 OVC022 M14/M18 A2945 RMK AO1 SLP036
SPECI CYNL 172150Z AUTO ///// 3SM VV012 M14/M17 A2946 RMK AO1 SLP036
SPECI CYNL 172148Z AUTO ///// 2 1/2SM VV013 M14/M18 A2946 RMK AO1 SLP036
SPECI CYNL 172139Z AUTO ///// 4SM VV014 M14/M18 A2945 RMK AO1 SLP035
SPECI CYNL 172137Z AUTO ///// 4SM VV015 M14/M18 A2945 RMK AO1 SLP035
SPECI CYNL 172136Z AUTO ///// 3SM VV014 M14/M18 A2945 RMK AO1 SLP035
SPECI CYNL 172135Z AUTO ///// 3SM VV015 M14/M18 A2945 RMK AO1 SLP035
SPECI CYNL 172133Z AUTO ///// 3SM VV014 M14/M18 A2945 RMK AO1 SLP035
SPECI CYNL 172126Z AUTO ///// 3SM FEW008 SCT011 OVC021 M14/M18 A2945 RMK AO1 SLP034
SPECI CYNL 172124Z AUTO ///// 5SM VV011 M14/M18 A2945 RMK AO1 SLP034
SPECI CYNL 172117Z AUTO ///// 5SM FEW008 OVC020 M14/M18 A2945 RMK AO1 SLP034
METAR CYNL 172100Z AUTO ///// 3SM OVC019 M14/M18 A2944 RMK AO1 SLP031
SPECI CYNL 172052Z AUTO ///// 3SM OVC020 M14/M17 A2944 RMK AO1 SLP031
SPECI CYNL 172051Z AUTO ///// 2 1/2SM OVC020 M14/M17 A2944 RMK AO1 SLP031
SPECI CYNL 172038Z AUTO ///// 3SM FEW013 OVC020 M14/M17 A2944 RMK AO1 SLP030
SPECI CYNL 172036Z AUTO ///// 2 1/2SM FEW013 OVC021 M14/M17 A2944 RMK AO1 SLP029
SPECI CYNL 172034Z AUTO ///// 3SM FEW013 OVC021 M14/M17 A2944 RMK AO1 SLP029
SPECI CYNL 172033Z AUTO ///// 2 1/2SM FEW013 OVC021 M14/M17 A2944 RMK AO1 SLP029
SPECI CYNL 172024Z AUTO ///// 3SM SCT012 BKN021 OVC062 M14/M17 A2944 RMK AO1 SLP029
SPECI CYNL 172021Z AUTO ///// 2 1/2SM SCT013 BKN021 OVC062 M14/M17 A2943 RMK AO1 SLP028
SPECI CYNL 172013Z AUTO ///// 4SM VV015 M14/M17 A2943 RMK AO1 SLP027
SPECI CYNL 172010Z AUTO ///// 4SM VV013 M14/M17 A2943 RMK AO1 SLP027
SPECI CYNL 172008Z AUTO ///// 4SM FEW008 SCT012 BKN019 M14/M17 A2943 RMK AO1 SLP026
SPECI CYNL 172007Z AUTO ///// 4SM VV013 M14/M17 A2943 RMK AO1 SLP026
SPECI CYNL 172006Z AUTO ///// 4SM FEW008 SCT012 BKN017 M14/M17 A2943 RMK AO1 SLP026
METAR CYNL 172000Z AUTO ///// 4SM FEW008 SCT016 OVC062 M14/M17 A2942 RMK AO1 SLP024
SPECI CYNL 171916Z AUTO ///// 4SM FEW007 SCT010 BKN064 M14/M17 A2941 RMK AO1 SLP021
SPECI CYNL 171907Z AUTO ///// 5SM SCT007 BKN010 OVC062 M14/M17 A2941 RMK AO1 SLP020
SPECI CYNL 171906Z AUTO ///// 4SM VV007 M14/M17 A2941 RMK AO1 SLP020
METAR CYNL 171900Z AUTO ///// 3SM FEW007 BKN011 OVC062 M14/M17 A2941 RMK AO1 SLP020
SPECI CYNL 171858Z AUTO ///// 5SM FEW007 BKN011 OVC062 M14/M17 A2941 RMK AO1 SLP020
SPECI CYNL 171855Z AUTO ///// 5SM VV009 M14/M17 A2941 RMK AO1 SLP020
SPECI CYNL 171829Z AUTO ///// 4SM FEW009 BKN012 BKN015 M14/M17 A2941 RMK AO1 SLP019
SPECI CYNL 171802Z AUTO ///// 4SM VV014 M14/M17 A2940 RMK AO1 SLP018
METAR CYNL 171800Z AUTO ///// 4SM VV015 M14/M17 A2941 RMK AO1 SLP018
SPECI CYNL 171740Z AUTO ///// 4SM VV015 M14/M17 A2940 RMK AO1 SLP016
SPECI CYNL 171739Z AUTO ///// 4SM VV014 M14/M17 A2940 RMK AO1 SLP016
SPECI CYNL 171738Z AUTO ///// 4SM VV015 M14/M17 A2940 RMK AO1 SLP016
SPECI CYNL 171726Z AUTO ///// 6SM FEW008 SCT011 BKN014 M14/M17 A2940 RMK AO1 SLP016
SPECI CYNL 171724Z AUTO ///// 6SM FEW008 SCT011 BKN015 M14/M17 A2940 RMK AO1 SLP016
SPECI CYNL 171721Z AUTO ///// 6SM FEW008 SCT011 BKN014 M14/M17 A2940 RMK AO1 SLP016
SPECI CYNL 171720Z AUTO ///// 5SM FEW008 SCT012 BKN015 M14/M17 A2940 RMK AO1 SLP016
SPECI CYNL 171719Z AUTO ///// 5SM VV012 M14/M17 A2940 RMK AO1 SLP016
SPECI CYNL 171718Z AUTO ///// 5SM SCT012 BKN015 BKN045 M14/M17 A2940 RMK AO1 SLP016
SPECI CYNL 171709Z AUTO ///// 5SM VV013 M14/M17 A2940 RMK AO1 SLP015
SPECI CYNL 171705Z AUTO ///// 6SM FEW009 SCT011 OVC046 M14/M17 A2940 RMK AO1 SLP015
SPECI CYNL 171703Z AUTO ///// 5SM FEW011 SCT015 OVC046 M14/M17 A2940 RMK AO1 SLP015
SPECI CYNL 171701Z AUTO ///// 6SM VV011 M14/M17 A2940 RMK AO1 SLP015
METAR CYNL 171700Z AUTO ///// 6SM FEW011 SCT014 OVC046 M14/M17 A2940 RMK AO1 SLP015
SPECI CYNL 171646Z AUTO ///// 6SM SCT014 OVC046 M14/M17 A2940 RMK AO1 SLP015
SPECI CYNL 171638Z AUTO ///// 4SM FEW010 BKN014 OVC046 M14/M17 A2939 RMK AO1 SLP014
SPECI CYNL 171637Z AUTO ///// 4SM VV015 M14/M17 A2939 RMK AO1 SLP014
SPECI CYNL 171601Z AUTO ///// 5SM VV014 M14/M17 A2939 RMK AO1 SLP013
METAR CYNL 171600Z AUTO ///// 5SM VV015 M14/M17 A2939 RMK AO1 SLP013
SPECI CYNL 171548Z AUTO ///// 4SM VV015 M14/M17 A2939 RMK AO1 SLP012
SPECI CYNL 171546Z AUTO ///// 5SM VV014 M14/M17 A2939 RMK AO1 SLP012
SPECI CYNL 171543Z AUTO ///// 6SM FEW008 BKN015 OVC049 M14/M17 A2939 RMK AO1 SLP011
SPECI CYNL 171542Z AUTO ///// 6SM FEW008 BKN014 OVC049 M14/M17 A2939 RMK AO1 SLP011
SPECI CYNL 171541Z AUTO ///// 6SM FEW008 SCT013 BKN016 M14/M17 A2939 RMK AO1 SLP011
SPECI CYNL 171540Z AUTO ///// 7SM FEW008 BKN014 OVC049 M14/M17 A2939 RMK AO1 SLP012
SPECI CYNL 171537Z AUTO ///// 8SM FEW009 SCT013 BKN016 M14/M17 A2939 RMK AO1 SLP012
SPECI CYNL 171536Z AUTO ///// 8SM FEW009 BKN014 OVC049 M14/M17 A2939 RMK AO1 SLP012
SPECI CYNL 171535Z AUTO ///// 7SM FEW009 SCT013 BKN016 M14/M17 A2939 RMK AO1 SLP012
SPECI CYNL 171533Z AUTO ///// 5SM VV015 M14/M17 A2939 RMK AO1 SLP011
SPECI CYNL 171528Z AUTO ///// 9SM VV010 M14/M17 A2939 RMK AO1 SLP011
SPECI CYNL 171525Z AUTO ///// 9SM VV009 M14/M17 A2938 RMK AO1 SLP011
SPECI CYNL 171517Z AUTO ///// 3SM VV013 M14/M17 A2938 RMK AO1 SLP010
SPECI CYNL 171513Z AUTO ///// 2SM VV013 M14/M17 A2938 RMK AO1 SLP009
SPECI CYNL 171511Z AUTO ///// 2 1/2SM VV016 M14/M17 A2938 RMK AO1 SLP009
METAR CYNL 171500Z AUTO ///// 4SM VV017 M14/M17 A2938 RMK AO1 SLP009
SPECI CYNL 171440Z AUTO ///// 4SM VV016 M14/M16 A2938 RMK AO1 SLP007
SPECI CYNL 171439Z AUTO ///// 3SM BKN014 OVC052 M14/M16 A2938 RMK AO1 SLP007
SPECI CYNL 171438Z AUTO ///// 3SM SCT014 BKN017 BKN022 M14/M16 A2938 RMK AO1 SLP007
SPECI CYNL 171437Z AUTO ///// 3SM FEW007 BKN014 BKN022 M14/M16 A2938 RMK AO1 SLP007
SPECI CYNL 171435Z AUTO ///// 2 1/2SM FEW007 BKN013 BKN022 M14/M16 A2938 RMK AO1 SLP007
SPECI CYNL 171403Z AUTO ///// 7SM FEW007 OVC014 M14/M16 A2938 RMK AO1 SLP007
METAR CYNL 171400Z AUTO ///// 7SM OVC014 M14/M16 A2938 RMK AO1 SLP007
SPECI CYNL 171353Z AUTO ///// 9SM OVC014 M14/M16 A2938 RMK AO1 SLP007
SPECI CYNL 171316Z AUTO ///// 8SM BKN015 OVC046 M14/M17 A2937 RMK AO1 SLP007
METAR CYNL 171300Z AUTO 28006KT 9SM FEW014 OVC047 M14/M17 A2938 RMK AO1 SLP008
SPECI CYNL 171246Z AUTO 28005KT 9SM SCT014 OVC047 M14/M17 A2938 RMK AO1 SLP008
SPECI CYNL 171232Z AUTO 28006KT 9SM BKN014 OVC047 M15/M17 A2938 RMK AO1 SLP009
SPECI CYNL 171218Z AUTO 28005KT 9SM BKN017 OVC047 M15/M17 A2938 RMK AO1 SLP010
SPECI CYNL 171212Z AUTO 28004KT 9SM SCT017 OVC047 M15/M17 A2938 RMK AO1 SLP010
METAR CYNL 171200Z AUTO 27004KT 9SM OVC018 M15/M17 A2938 RMK AO1 SLP011
SPECI CYNL 171142Z AUTO 27005KT 9SM BKN019 OVC045 M15/M17 A2938 RMK AO1 SLP012
METAR CYNL 171100Z AUTO 29005KT 9SM OVC048 M15/M17 A2938 RMK AO1 SLP012
METAR CYNL 171000Z AUTO 25003KT 9SM OVC047 M16/M18 A2939 RMK AO1 SLP017
METAR CYNL 170900Z AUTO 00000KT 9SM OVC041 M16/M18 A2940 RMK AO1 SLP018
METAR CYNL 170800Z AUTO 00000KT 9SM FEW007 BKN042 M16/M18 A2940 RMK AO1 SLP021
SPECI CYNL 170753Z AUTO 00000KT 9SM FEW007 BKN043 M16/M18 A2941 RMK AO1 SLP022
METAR CYNL 170700Z AUTO 00000KT 9SM OVC047 M16/M18 A2941 RMK AO1 SLP025
METAR CYNL 170600Z AUTO 00000KT 9SM OVC049 M16/M18 A2942 RMK AO1 SLP027
SPECI CYNL 170502Z AUTO 16002KT 5SM SCT017 BKN031 BKN052 M16/M18 A2943 RMK AO1 PRESFR SLP031
METAR CYNL 170500Z AUTO 17002KT 4SM VV016 M16/M18 A2943 RMK AO1 PRESFR SLP031
SPECI CYNL 170451Z AUTO 17003KT 6SM VV020 M16/M18 A2944 RMK AO1 SLP033
METAR CYNL 170400Z AUTO 13002KT 9SM SCT033 OVC044 M16/M18 A2946 RMK AO1 SLP038
METAR CYNL 170300Z AUTO 14003KT 8SM OVC035 M16/M18 A2947 RMK AO1 PRESFR SLP045
METAR CYNL 170200Z AUTO 15004KT 9SM FEW023 OVC038 M16/M19 A2950 RMK AO1 SLP054
METAR CYNL 170100Z AUTO 16005KT 9SM OVC040 M16/M19 A2951 RMK AO1 SLP058
METAR CYNL 170000Z AUTO 13005KT 8SM OVC043 M16/M19 A2953 RMK AO1 PRESFR SLP064
METAR CYNL 162300Z AUTO 14006KT 9SM OVC044 M16/M19 A2955 RMK AO1 SLP072
SPECI CYNL 162203Z AUTO 12008KT 6SM FEW009 SCT016 OVC052 M16/M19 A2957 RMK AO1 PRESFR SLP078
METAR CYNL 162200Z AUTO 13008KT 5SM SCT009 BKN027 OVC052 M16/M19 A2957 RMK AO1 PRESFR SLP079
SPECI CYNL 162156Z AUTO 13007KT 6SM SCT009 BKN027 OVC052 M16/M19 A2957 RMK AO1 PRESFR SLP080
SPECI CYNL 162149Z AUTO ///// 4SM VV017 M16/M19 A2957 RMK AO1 PRESFR SLP078
SPECI CYNL 162145Z AUTO ///// 3SM VV014 M16/M19 A2957 RMK AO1 PRESFR SLP078
SPECI CYNL 162140Z AUTO ///// 3SM VV020 M16/M19 A2957 RMK AO1 PRESFR SLP079
SPECI CYNL 162136Z AUTO ///// 2 1/2SM VV020 M16/M19 A2957 RMK AO1 PRESFR SLP079
SPECI CYNL 162135Z AUTO ///// 3SM VV019 M16/M19 A2957 RMK AO1 PRESFR SLP080
SPECI CYNL 162134Z AUTO ///// 2 1/2SM VV018 M16/M19 A2957 RMK AO1 PRESFR SLP080
SPECI CYNL 162131Z AUTO ///// 3SM VV015 M16/M20 A2957 RMK AO1 PRESFR SLP080
SPECI CYNL 162129Z AUTO ///// 4SM VV014 M17/M20 A2957 RMK AO1 PRESFR SLP080
SPECI CYNL 162123Z AUTO ///// 4SM VV024 M17/M20 A2957 RMK AO1 PRESFR SLP081
SPECI CYNL 162118Z AUTO ///// 4SM VV025 M17/M20 A2958 RMK AO1 PRESFR SLP082
SPECI CYNL 162113Z AUTO ///// 3SM VV018 M17/M20 A2958 RMK AO1 PRESFR SLP084
SPECI CYNL 162110Z AUTO ///// 2 1/2SM VV015 M17/M20 A2958 RMK AO1 PRESFR SLP084
SPECI CYNL 162109Z AUTO ///// 3SM VV014 M17/M20 A2958 RMK AO1 PRESFR SLP084
METAR CYNL 162100Z AUTO 12007KT 2SM VV014 M17/M20 A2959 RMK AO1 PRESFR SLP087
SPECI CYNL 162057Z AUTO ///// 2SM VV014 M17/M20 A2959 RMK AO1 PRESFR SLP088
SPECI CYNL 162053Z AUTO 12010KT 1 1/2SM VV012 M17/M20 A2960 RMK AO1 PRESFR SLP089
SPECI CYNL 162051Z AUTO 12008KT 1 1/4SM VV012 M17/M20 A2960 RMK AO1 PRESFR SLP089
SPECI CYNL 162046Z AUTO ///// 1 1/2SM VV013 M17/M20 A2960 RMK AO1 PRESFR SLP090
SPECI CYNL 162041Z AUTO ///// 1 1/4SM VV014 M17/M20 A2960 RMK AO1 PRESFR SLP091
SPECI CYNL 162040Z AUTO ///// 1 1/2SM VV013 M17/M20 A2960 RMK AO1 PRESFR SLP092
SPECI CYNL 162037Z AUTO ///// 1 1/4SM VV013 M17/M20 A2961 RMK AO1 PRESFR SLP093
SPECI CYNL 162034Z AUTO ///// 1 1/2SM VV012 M17/M20 A2961 RMK AO1 PRESFR SLP093
SPECI CYNL 162025Z AUTO ///// 1 1/4SM VV011 M17/M20 A2961 RMK AO1 PRESFR SLP095
SPECI CYNL 162022Z AUTO ///// 1 3/4SM VV011 M17/M20 A2961 RMK AO1 PRESFR SLP095
SPECI CYNL 162021Z AUTO ///// 2SM VV011 M17/M20 A2961 RMK AO1 PRESFR SLP095
SPECI CYNL 162017Z AUTO ///// 1 1/2SM VV011 M17/M20 A2961 RMK AO1 PRESFR SLP095
SPECI CYNL 162003Z AUTO ///// 1SM VV010 M17/M20 A2962 RMK AO1 PRESFR SLP098
METAR CYNL 162000Z AUTO ///// 1SM VV009 M17/M20 A2962 RMK AO1 PRESFR SLP099
SPECI CYNL 161957Z AUTO ///// 1SM VV008 M17/M20 A2962 RMK AO1 PRESFR SLP099
SPECI CYNL 161947Z AUTO ///// 3/4SM VV007 M17/M20 A2963 RMK AO1 PRESFR SLP101
SPECI CYNL 161937Z AUTO ///// 5/8SM VV008 M17/M20 A2963 RMK AO1 PRESFR SLP102
SPECI CYNL 161936Z AUTO ///// 3/4SM VV008 M17/M20 A2963 RMK AO1 PRESFR SLP102
SPECI CYNL 161935Z AUTO ///// 5/8SM VV008 M17/M20 A2963 RMK AO1 PRESFR SLP102
SPECI CYNL 161933Z AUTO ///// 3/4SM VV008 M17/M20 A2963 RMK AO1 PRESFR SLP102
SPECI CYNL 161930Z AUTO ///// 5/8SM VV009 M17/M20 A2963 RMK AO1 PRESFR SLP102
SPECI CYNL 161929Z AUTO ///// 3/4SM VV010 M17/M20 A2963 RMK AO1 PRESFR SLP103
SPECI CYNL 161916Z AUTO ///// 1SM VV011 M17/M20 A2965 RMK AO1 PRESFR SLP107
SPECI CYNL 161915Z AUTO ///// 3/4SM VV011 M17/M20 A2965 RMK AO1 PRESFR SLP107
SPECI CYNL 161914Z AUTO ///// 5/8SM VV011 M17/M20 A2965 RMK AO1 PRESFR SLP107
SPECI CYNL 161908Z AUTO ///// 3/4SM VV011 M17/M20 A2965 RMK AO1 PRESFR SLP108
SPECI CYNL 161907Z AUTO ///// 5/8SM VV011 M17/M20 A2965 RMK AO1 PRESFR SLP108
SPECI CYNL 161902Z AUTO ///// 3/4SM VV012 M17/M20 A2965 RMK AO1 PRESFR SLP109
METAR CYNL 161900Z AUTO ///// 1SM VV012 M17/M20 A2965 RMK AO1 PRESFR SLP110
SPECI CYNL 161853Z AUTO ///// 1SM VV010 M17/M20 A2965 RMK AO1 PRESFR SLP111
SPECI CYNL 161852Z AUTO ///// 3/4SM VV010 M17/M20 A2965 RMK AO1 PRESFR SLP111
SPECI CYNL 161850Z AUTO ///// 3/4SM VV009 M17/M20 A2965 RMK AO1 PRESFR SLP112
SPECI CYNL 161849Z AUTO ///// 5/8SM VV009 M17/M20 A2965 RMK AO1 PRESFR SLP113
SPECI CYNL 161847Z AUTO ///// 3/4SM VV009 M17/M20 A2966 RMK AO1 PRESFR SLP114
SPECI CYNL 161845Z AUTO ///// 1SM VV008 M17/M20 A2966 RMK AO1 PRESFR SLP116
SPECI CYNL 161844Z AUTO ///// 3/4SM VV008 M17/M20 A2967 RMK AO1 PRESFR SLP116
METAR CYNL 161800Z AUTO ///// 3/8SM VV007 M17/M20 A2970 RMK AO1 PRESFR SLP127
SPECI CYNL 161751Z AUTO ///// 5/8SM VV009 M17/M20 A2970 RMK AO1 PRESFR SLP131
SPECI CYNL 161746Z AUTO ///// 5/8SM VV012 M17/M20 A2971 RMK AO1 PRESFR SLP132
SPECI CYNL 161745Z AUTO ///// 3/4SM VV012 M17/M20 A2971 RMK AO1 PRESFR SLP132
SPECI CYNL 161734Z AUTO ///// 1 1/4SM VV014 M17/M20 A2971 RMK AO1 PRESFR SLP132
SPECI CYNL 161733Z AUTO ///// 1 1/4SM VV015 M17/M20 A2971 RMK AO1 PRESFR SLP133
SPECI CYNL 161729Z AUTO ///// 1 1/2SM VV014 M17/M20 A2971 RMK AO1 PRESFR SLP134
SPECI CYNL 161728Z AUTO ///// 1 1/4SM VV014 M17/M20 A2971 RMK AO1 PRESFR SLP134
SPECI CYNL 161724Z AUTO ///// 1 1/2SM VV014 M17/M20 A2971 RMK AO1 PRESFR SLP134
SPECI CYNL 161721Z AUTO ///// 1 3/4SM VV017 M17/M20 A2972 RMK AO1 PRESFR SLP136
SPECI CYNL 161720Z AUTO ///// 2 1/2SM SCT008 BKN013 BKN024 M17/M20 A2972 RMK AO1 PRESFR SLP136
SPECI CYNL 161712Z AUTO ///// 3SM VV007 M17/M20 A2972 RMK AO1 PRESFR SLP136
SPECI CYNL 161710Z AUTO ///// 2SM VV007 M17/M20 A2972 RMK AO1 PRESFR SLP137
SPECI CYNL 161709Z AUTO ///// 1 3/4SM VV007 M17/M20 A2972 RMK AO1 PRESFR SLP137
METAR CYNL 161700Z AUTO ///// 1SM VV009 M17/M20 A2973 RMK AO1 PRESFR SLP138
SPECI CYNL 161657Z AUTO ///// 1SM VV009 M17/M20 A2973 RMK AO1 PRESFR SLP140
SPECI CYNL 161653Z AUTO ///// 3/4SM VV009 M17/M20 A2973 RMK AO1 PRESFR SLP140
SPECI CYNL 161643Z AUTO ///// 1SM VV008 M17/M20 A2973 RMK AO1 PRESFR SLP141
SPECI CYNL 161636Z AUTO ///// 3/4SM VV007 M17/M20 A2973 RMK AO1 PRESFR SLP142
SPECI CYNL 161633Z AUTO ///// 5/8SM VV008 M17/M20 A2974 RMK AO1 PRESFR SLP144
SPECI CYNL 161631Z AUTO ///// 3/4SM VV009 M17/M20 A2974 RMK AO1 PRESFR SLP144
SPECI CYNL 161630Z AUTO ///// 1SM VV009 M17/M20 A2974 RMK AO1 PRESFR SLP145
SPECI CYNL 161627Z AUTO ///// 1 1/4SM VV010 M17/M20 A2974 RMK AO1 PRESFR SLP146
SPECI CYNL 161624Z AUTO ///// 1 3/4SM VV011 M17/M20 A2974 RMK AO1 PRESFR SLP147
SPECI CYNL 161623Z AUTO ///// 1 1/4SM VV011 M17/M20 A2975 RMK AO1 PRESFR SLP147
SPECI CYNL 161621Z AUTO ///// 1 1/2SM VV013 M17/M20 A2974 RMK AO1 PRESFR SLP147
SPECI CYNL 161616Z AUTO ///// 2 1/2SM VV014 M17/M20 A2975 RMK AO1 PRESFR SLP146
SPECI CYNL 161615Z AUTO ///// 2SM VV015 M17/M20 A2975 RMK AO1 PRESFR SLP146
SPECI CYNL 161614Z AUTO ///// 2SM VV014 M17/M20 A2975 RMK AO1 PRESFR SLP147
SPECI CYNL 161607Z AUTO ///// 1 1/2SM VV011 M17/M20 A2975 RMK AO1 PRESFR SLP148
SPECI CYNL 161601Z AUTO ///// 1 1/4SM VV011 M17/M20 A2975 RMK AO1 PRESFR SLP149
METAR CYNL 161600Z AUTO ///// 1 1/2SM VV010 M17/M20 A2976 RMK AO1 PRESFR SLP150
SPECI CYNL 161551Z AUTO ///// 1 1/4SM VV014 M17/M20 A2977 RMK AO1 PRESFR SLP155
SPECI CYNL 161549Z AUTO ///// 1 3/4SM VV017 M17/M20 A2977 RMK AO1 PRESFR SLP156
SPECI CYNL 161547Z AUTO ///// 2 1/2SM VV020 M17/M20 A2977 RMK AO1 PRESFR SLP156
SPECI CYNL 161546Z AUTO ///// 3SM VV021 M17/M20 A2977 RMK AO1 PRESFR SLP156
METAR CYNL 161500Z AUTO ///// 9SM CLR M17/M20 A2980 RMK AO1 PRESFR SLP167
METAR CYNL 161400Z AUTO ///// 9SM CLR M17/M20 A2986 RMK AO1 PRESFR SLP185
METAR CYNL 161300Z AUTO ///// 9SM CLR M17/M20 A2989 RMK AO1 PRESFR SLP197
METAR CYNL 161200Z AUTO ///// 9SM CLR M17/M19 A2992 RMK AO1 PRESFR SLP207
METAR CYNL 161100Z AUTO ///// 9SM CLR M17/M20 A2997 RMK AO1 PRESFR SLP220
METAR CYNL 161000Z AUTO ///// 9SM CLR M17/M20 A3001 RMK AO1 PRESFR SLP235
METAR CYNL 160900Z AUTO ///// 9SM CLR M17/M20 A3005 RMK AO1 PRESFR SLP248
METAR CYNL 160800Z AUTO ///// 9SM CLR M17/M20 A3009 RMK AO1 PRESFR SLP260
METAR CYNL 160700Z AUTO ///// 9SM CLR M19/M22 A3012 RMK AO1 PRESFR SLP273
METAR CYNL 160600Z AUTO 12006KT 9SM CLR M20/M23 A3015 RMK AO1 PRESFR SLP285
SPECI CYNL 160525Z AUTO 13006KT 9SM SCT004 M21/M24 A3017 RMK AO1 SLP294
SPECI CYNL 160512Z AUTO 13008KT 9SM VV004 M21/M24 A3017 RMK AO1 SLP295
METAR CYNL 160500Z AUTO 14007KT 9SM SCT005 M21/M24 A3018 RMK AO1 SLP298
SPECI CYNL 160455Z AUTO 14005KT 9SM SCT005 M21/M24 A3018 RMK AO1 PRESFR SLP300
SPECI CYNL 160414Z AUTO 12004KT 9SM BKN005 M21/M25 A3019 RMK AO1 PRESFR SLP304
SPECI CYNL 160410Z AUTO 12005KT 9SM VV004 M21/M25 A3019 RMK AO1 PRESFR SLP304
METAR CYNL 160400Z AUTO 14004KT 9SM VV005 M21/M25 A3020 RMK AO1 PRESFR SLP307
SPECI CYNL 160341Z AUTO 14004KT 9SM VV005 M22/M25 A3021 RMK AO1 PRESFR SLP312
SPECI CYNL 160335Z AUTO 14005KT 9SM FEW005 BKN088 M22/M25 A3021 RMK AO1 PRESFR SLP312
METAR CYNL 160300Z AUTO 15004KT 9SM CLR M21/M24 A3023 RMK AO1 PRESFR SLP318
SPECI CYNL 160238Z AUTO 15005KT 9SM FEW004 M21/M25 A3024 RMK AO1 PRESFR SLP322
METAR CYNL 160200Z AUTO 13003KT 9SM CLR M22/M25 A3025 RMK AO1 PRESFR SLP327
METAR CYNL 160100Z AUTO 10003KT 9SM CLR M21/M25 A3028 RMK AO1 SLP337
METAR CYNL 160000Z AUTO 16004KT 9SM BKN140 M20/M23 A3030 RMK AO1 SLP342
METAR CYNL 152300Z AUTO 14004KT 9SM FEW150 M20/M23 A3031 RMK AO1 SLP344
METAR CYNL 152200Z AUTO 15004KT 9SM CLR M19/M22 A3032 RMK AO1 SLP344
METAR CYNL 152100Z AUTO 14004KT 9SM CLR M18/M21 A3033 RMK AO1 PRESFR SLP349
METAR CYNL 152000Z AUTO 14005KT 9SM CLR M18/M21 A3036 RMK AO1 PRESFR SLP358
METAR CYNL 151900Z AUTO 18004KT 9SM CLR M18/M21 A3038 RMK AO1 SLP365
METAR CYNL 151800Z AUTO 18003KT 9SM CLR M20/M23 A3040 RMK AO1 SLP371
SPECI CYNL 151725Z AUTO 16004KT 9SM SCT007 M20/M23 A3040 RMK AO1 SLP373
METAR CYNL 151700Z AUTO 18004KT 9SM BKN007 M21/M24 A3041 RMK AO1 SLP377
METAR CYNL 151600Z AUTO 19004KT 9SM OVC006 M21/M24 A3042 RMK AO1 SLP384
SPECI CYNL 151541Z AUTO 16003KT 9SM OVC005 M21/M24 A3042 RMK AO1 SLP384
METAR CYNL 151500Z AUTO 13003KT 9SM OVC003 M22/M25 A3041 RMK AO1 SLP381
SPECI CYNL 151412Z AUTO 00000KT 3SM OVC003 M22/M25 A3042 RMK AO1 SLP391
SPECI CYNL 151411Z AUTO 00000KT 2SM OVC003 M22/M25 A3042 RMK AO1 SLP392
SPECI CYNL 151407Z AUTO 00000KT 2 1/2SM OVC003 M22/M25 A3043 RMK AO1 SLP392
SPECI CYNL 151404Z AUTO 00000KT 3SM OVC003 M22/M25 A3042 RMK AO1 SLP392
SPECI CYNL 151403Z AUTO 00000KT 2 1/2SM OVC003 M22/M25 A3042 RMK AO1 SLP391
METAR CYNL 151400Z AUTO 00000KT 3SM OVC003 M22/M25 A3042 RMK AO1 SLP391
SPECI CYNL 151359Z AUTO 00000KT 2 1/2SM OVC003 M22/M25 A3042 RMK AO1 SLP390
METAR CYNL 151300Z AUTO 00000KT 9SM OVC003 M21/M24 A3043 RMK AO1 SLP391
METAR CYNL 151200Z AUTO 24002KT 9SM BKN003 OVC005 M21/M24 A3043 RMK AO1 SLP389
SPECI CYNL 151111Z AUTO 21002KT 9SM BKN004 OVC007 M21/M23 A3043 RMK AO1 SLP387
METAR CYNL 151100Z AUTO 00000KT 9SM OVC006 M20/M23 A3042 RMK AO1 SLP385
METAR CYNL 151000Z AUTO 31003KT 9SM OVC005 M20/M23 A3043 RMK AO1 SLP387
METAR CYNL 150900Z AUTO 33003KT 9SM OVC006 M20/M23 A3043 RMK AO1 SLP383
METAR CYNL 150800Z AUTO 00003KT 9SM OVC006 M20/M23 A3043 RMK AO1 SLP379
METAR CYNL 150700Z AUTO 05003KT 9SM OVC006 M20/M23 A3042 RMK AO1 SLP378
METAR CYNL 150600Z AUTO 04002KT 9SM OVC006 M20/M23 A3041 RMK AO1 SLP376
SPECI CYNL 150509Z AUTO 00000KT 9SM OVC005 M20/M23 A3041 RMK AO1 SLP379
METAR CYNL 150500Z AUTO 00000KT 9SM OVC004 M20/M23 A3041 RMK AO1 SLP380
METAR CYNL 150400Z AUTO 00003KT 9SM OVC003 M21/M24 A3042 RMK AO1 SLP383
SPECI CYNL 150332Z AUTO 35003KT 9SM BKN004 OVC007 M22/M25 A3041 RMK AO1 SLP381
SPECI CYNL 150331Z AUTO 00003KT 9SM OVC005 M22/M25 A3041 RMK AO1 SLP381
SPECI CYNL 150329Z AUTO 00003KT 9SM BKN004 OVC007 M22/M25 A3041 RMK AO1 SLP381
SPECI CYNL 150312Z AUTO 34003KT 9SM BKN006 OVC011 M24/M27 A3040 RMK AO1 SLP381
SPECI CYNL 150309Z AUTO 35002KT 9SM SCT007 OVC011 M24/M27 A3040 RMK AO1 SLP381
SPECI CYNL 150307Z AUTO 35004KT 9SM BKN008 OVC013 M24/M28 A3040 RMK AO1 SLP381
SPECI CYNL 150306Z AUTO 35004KT 9SM SCT008 BKN010 OVC013 M24/M28 A3040 RMK AO1 SLP381
SPECI CYNL 150305Z AUTO 35004KT 9SM BKN008 OVC013 M24/M28 A3040 RMK AO1 SLP381
SPECI CYNL 150304Z AUTO 35004KT 9SM SCT008 OVC012 M25/M28 A3040 RMK AO1 SLP382
SPECI CYNL 150303Z AUTO 35004KT 9SM BKN009 OVC012 M25/M28 A3040 RMK AO1 SLP382
SPECI CYNL 150301Z AUTO ///// 9SM SCT009 BKN013 M25/M28 A3040 RMK AO1 SLP383
METAR CYNL 150300Z AUTO 35004KT 9SM BKN009 BKN013 M25/M28 A3040 RMK AO1 SLP383
SPECI CYNL 150259Z AUTO ///// 9SM SCT009 BKN011 BKN013 M25/M29 A3040 RMK AO1 SLP384
SPECI CYNL 150247Z AUTO 34003KT 9SM BKN013 M27/M31 A3040 RMK AO1 SLP385
METAR CYNL 150200Z AUTO 00004KT 9SM CLR M25/M28 A3039 RMK AO1 SLP379
METAR CYNL 150100Z AUTO 34004KT 9SM CLR M23/M26 A3037 RMK AO1 SLP374
METAR CYNL 150000Z AUTO 34006KT 9SM CLR M22/M26 A3036 RMK AO1 SLP367
METAR CYNL 142300Z AUTO 34005KT 9SM CLR M21/M24 A3034 RMK AO1 PRESRR SLP360
METAR CYNL 142200Z AUTO 33003KT 9SM CLR M19/M21 A3031 RMK AO1 PRESRR SLP347
SPECI CYNL 142109Z AUTO 35004KT 9SM CLR M17/M20 A3030 RMK AO1 PRESRR SLP339
SPECI CYNL 142106Z AUTO 00003KT 1SM CLR M17/M20 A3029 RMK AO1 PRESRR SLP338
METAR CYNL 142100Z AUTO 01005KT 9SM CLR M17/M20 A3029 RMK AO1 PRESRR SLP337
SPECI CYNL 142030Z AUTO 03005KT 5SM CLR M18/M21 A3028 RMK AO1 SLP332
SPECI CYNL 142028Z AUTO 03005KT 1 1/2SM CLR M18/M21 A3028 RMK AO1 SLP332
METAR CYNL 142000Z AUTO 04005KT 9SM CLR M18/M21 A3027 RMK AO1 SLP329
METAR CYNL 141900Z AUTO 02005KT 9SM CLR M19/M22 A3026 RMK AO1 SLP325
SPECI CYNL 141837Z AUTO 01005KT 9SM SCT006 M19/M22 A3025 RMK AO1 SLP323
SPECI CYNL 141829Z AUTO 02004KT 9SM OVC006 M20/M23 A3026 RMK AO1 SLP324
SPECI CYNL 141828Z AUTO 02004KT 2SM OVC006 M20/M23 A3026 RMK AO1 SLP324
SPECI CYNL 141827Z AUTO 02004KT 3/4SM OVC006 M20/M23 A3025 RMK AO1 SLP324
SPECI CYNL 141826Z AUTO 03004KT 1/2SM OVC006 M20/M23 A3025 RMK AO1 SLP324
SPECI CYNL 141825Z AUTO 02005KT 3/4SM OVC006 M20/M23 A3025 RMK AO1 SLP324
SPECI CYNL 141824Z AUTO 02006KT 2SM OVC006 M20/M23 A3025 RMK AO1 SLP324
METAR CYNL 141800Z AUTO 02005KT 9SM OVC005 M20/M24 A3025 RMK AO1 SLP323
METAR CYNL 141700Z AUTO 01006KT 9SM OVC007 M22/M25 A3023 RMK AO1 PRESRR SLP319
METAR CYNL 141600Z AUTO 02007KT 9SM OVC006 M20/M23 A3020 RMK AO1 PRESRR SLP306
SPECI CYNL 141518Z AUTO 01008KT 5SM BKN005 BKN008 OVC011 M21/M24 A3018 RMK AO1 PRESRR SLP296
SPECI CYNL 141517Z AUTO 01008KT 2 1/2SM FEW004 BKN005 OVC010 M21/M24 A3018 RMK AO1 PRESRR SLP296
SPECI CYNL 141515Z AUTO 02007KT 1 3/4SM FEW004 BKN005 OVC009 M21/M24 A3018 RMK AO1 PRESRR SLP296
METAR CYNL 141500Z AUTO 01006KT 9SM FEW002 SCT003 BKN009 M21/M24 A3017 RMK AO1 PRESRR SLP293
SPECI CYNL 141443Z AUTO 03006KT 3SM SCT002 OVC008 M22/M25 A3016 RMK AO1 PRESRR SLP287
SPECI CYNL 141442Z AUTO 02006KT 3SM BKN002 OVC008 M22/M25 A3016 RMK AO1 PRESRR SLP287
SPECI CYNL 141440Z AUTO 02006KT 2SM BKN002 OVC009 M22/M25 A3016 RMK AO1 PRESRR SLP286
SPECI CYNL 141438Z AUTO 02006KT 1 1/2SM BKN002 OVC009 M22/M25 A3016 RMK AO1 PRESRR SLP286
SPECI CYNL 141435Z AUTO 03006KT 1 1/4SM BKN002 OVC009 M22/M25 A3016 RMK AO1 PRESRR SLP286
SPECI CYNL 141433Z AUTO 03006KT 1 1/2SM OVC002 M22/M25 A3016 RMK AO1 PRESRR SLP286
SPECI CYNL 141431Z AUTO 03006KT 1 1/4SM OVC002 M22/M25 A3016 RMK AO1 PRESRR SLP286
SPECI CYNL 141427Z AUTO 03005KT 1 3/4SM OVC002 M22/M25 A3016 RMK AO1 PRESRR SLP286
SPECI CYNL 141426Z AUTO 03005KT 2SM OVC002 M22/M25 A3016 RMK AO1 PRESRR SLP286
SPECI CYNL 141423Z AUTO 03005KT 1 1/2SM OVC002 M22/M25 A3015 RMK AO1 PRESRR SLP285
SPECI CYNL 141419Z AUTO 02005KT 1 1/4SM OVC002 M23/M25 A3015 RMK AO1 PRESRR SLP285
SPECI CYNL 141418Z AUTO 02005KT 1 1/2SM OVC002 M23/M25 A3015 RMK AO1 PRESRR SLP284
SPECI CYNL 141415Z AUTO 02005KT 1 1/2SM OVC003 M23/M26 A3015 RMK AO1 PRESRR SLP284
SPECI CYNL 141413Z AUTO 02007KT 1 1/4SM OVC003 M23/M26 A3015 RMK AO1 PRESRR SLP285
SPECI CYNL 141412Z AUTO 03006KT 1 1/2SM OVC003 M23/M26 A3015 RMK AO1 PRESRR SLP285
SPECI CYNL 141408Z AUTO 03005KT 2 1/2SM OVC003 M23/M26 A3015 RMK AO1 PRESRR SLP285
SPECI CYNL 141402Z AUTO 04006KT 3SM OVC003 M23/M26 A3015 RMK AO1 PRESRR SLP284
METAR CYNL 141400Z AUTO 04006KT 2 1/2SM OVC003 M23/M26 A3015 RMK AO1 PRESRR SLP284
SPECI CYNL 141341Z AUTO 03006KT 9SM OVC004 M24/M27 A3013 RMK AO1 PRESRR SLP277
SPECI CYNL 141312Z AUTO 02006KT 9SM OVC005 M24/M27 A3013 RMK AO1 PRESRR SLP274
SPECI CYNL 141311Z AUTO 02006KT 9SM BKN004 OVC006 M24/M27 A3013 RMK AO1 PRESRR SLP274
METAR CYNL 141300Z AUTO 01005KT 9SM OVC005 M24/M27 A3012 RMK AO1 PRESRR SLP272
SPECI CYNL 141233Z AUTO 01005KT 9SM BKN006 M24/M27 A3011 RMK AO1 PRESRR SLP267
SPECI CYNL 141222Z AUTO 01006KT 9SM FEW006 M24/M27 A3011 RMK AO1 PRESRR SLP265
METAR CYNL 141200Z AUTO 01005KT 9SM CLR M24/M27 A3009 RMK AO1 PRESRR SLP260
METAR CYNL 141100Z AUTO 01006KT 9SM CLR M24/M27 A3006 RMK AO1 SLP249
METAR CYNL 141000Z AUTO 01005KT 9SM CLR M23/M26 A3004 RMK AO1 SLP241
METAR CYNL 140900Z AUTO 00000KT 9SM CLR M22/M25 A3003 RMK AO1 PRESRR SLP233
METAR CYNL 140800Z AUTO 01008KT 9SM CLR M21/M24 A2999 RMK AO1 SLP219
METAR CYNL 140700Z AUTO 35008KT 9SM CLR M20/M23 A2998 RMK AO1 PRESRR SLP212
METAR CYNL 140600Z AUTO 35008KT 9SM CLR M21/M23 A2996 RMK AO1 SLP204
METAR CYNL 140500Z AUTO 33004KT 9SM CLR M19/M22 A2995 RMK AO1 PRESRR SLP202
METAR CYNL 140400Z AUTO 35004KT 9SM CLR M17/M20 A2993 RMK AO1 PRESRR SLP192
METAR CYNL 140300Z AUTO 00004KT 9SM CLR M15/M18 A2991 RMK AO1 PRESRR SLP183
SPECI CYNL 140238Z AUTO ///// 9SM FEW004 SCT006 M14/M17 A2989 RMK AO1 PRESRR SLP177
SPECI CYNL 140203Z AUTO ///// 9SM BKN008 OVC011 M12/M15 A2987 RMK AO1 PRESRR SLP168
METAR CYNL 140200Z AUTO ///// 9SM SCT008 OVC011 M12/M15 A2987 RMK AO1 PRESRR SLP168
SPECI CYNL 140159Z AUTO ///// 9SM SCT008 OVC011 M12/M15 A2987 RMK AO1 PRESRR SLP168
SPECI CYNL 140153Z AUTO ///// 7SM VV009 M12/M14 A2987 RMK AO1 PRESRR SLP167
SPECI CYNL 140147Z AUTO ///// 9SM FEW007 OVC011 M12/M14 A2987 RMK AO1 PRESRR SLP166
SPECI CYNL 140102Z AUTO 32008KT 6SM OVC014 M10/M13 A2985 RMK AO1 PRESRR SLP158
METAR CYNL 140100Z AUTO 32005KT 4SM OVC015 M10/M13 A2985 RMK AO1 PRESRR SLP158
SPECI CYNL 140015Z AUTO 33005G16KT 8SM OVC015 M10/M12 A2983 RMK AO1 PRESRR SLP151
SPECI CYNL 140008Z AUTO 33008G16KT 3SM OVC014 M09/M12 A2983 RMK AO1 PRESRR SLP150
SPECI CYNL 140005Z AUTO 33008KT 2 1/2SM BKN013 OVC017 M09/M12 A2983 RMK AO1 PRESRR SLP149
SPECI CYNL 140003Z AUTO 33006KT 3SM BKN013 OVC017 M09/M11 A2983 RMK AO1 PRESRR SLP149
METAR CYNL 140000Z AUTO 33006KT 2SM BKN013 OVC017 M09/M11 A2983 RMK AO1 PRESRR SLP148
SPECI CYNL 132358Z AUTO 33007KT 1 3/4SM BKN013 OVC017 M09/M11 A2982 RMK AO1 PRESRR SLP148
SPECI CYNL 132357Z AUTO 33007KT 2 1/2SM BKN014 OVC018 M09/M11 A2982 RMK AO1 PRESRR SLP148
SPECI CYNL 132356Z AUTO 33006KT 3SM BKN014 OVC018 M09/M11 A2982 RMK AO1 PRESRR SLP148
METAR CYNL 132300Z AUTO 30009KT 9SM OVC019 M09/M12 A2980 RMK AO1 PRESRR SLP141
SPECI CYNL 132227Z AUTO 31007KT 9SM SCT013 OVC021 M09/M11 A2979 RMK AO1 SLP135
SPECI CYNL 132210Z AUTO 29009KT 9SM BKN014 OVC018 M08/M11 A2978 RMK AO1 SLP131
METAR CYNL 132200Z AUTO 29006KT 9SM BKN015 OVC019 M08/M11 A2977 RMK AO1 SLP130
SPECI CYNL 132139Z AUTO 30007KT 9SM OVC015 M08/M11 A2976 RMK AO1 PRESRR SLP126
SPECI CYNL 132108Z AUTO 29008KT 9SM BKN014 OVC018 M08/M11 A2976 RMK AO1 PRESRR SLP124
METAR CYNL 132100Z AUTO 29009KT 7SM BKN015 OVC020 M08/M11 A2976 RMK AO1 PRESRR SLP123
SPECI CYNL 132007Z AUTO 29009KT 7SM SCT014 BKN020 M07/M10 A2974 RMK AO1 SLP116
METAR CYNL 132000Z AUTO 28009KT 9SM FEW016 SCT020 BKN068 M07/M10 A2973 RMK AO1 SLP116
SPECI CYNL 131947Z AUTO 29010G16KT 9SM SCT015 M07/M10 A2973 RMK AO1 SLP115
SPECI CYNL 131941Z AUTO 29007G15KT 6SM BKN015 M07/M09 A2973 RMK AO1 SLP114
SPECI CYNL 131928Z AUTO 29007KT 7SM FEW007 BKN014 BKN017 M07/M09 A2973 RMK AO1 SLP112
SPECI CYNL 131924Z AUTO 29007KT 8SM FEW007 BKN015 M07/M09 A2973 RMK AO1 SLP113
SPECI CYNL 131922Z AUTO 29008KT 8SM FEW007 BKN014 BKN020 M07/M09 A2973 RMK AO1 SLP113
SPECI CYNL 131920Z AUTO 29005KT 8SM FEW007 BKN015 M07/M09 A2973 RMK AO1 SLP112
SPECI CYNL 131918Z AUTO 29007KT 6SM FEW007 BKN014 M07/M09 A2973 RMK AO1 SLP112
SPECI CYNL 131912Z AUTO 29006KT 4SM FEW007 SCT012 BKN017 M07/M09 A2973 RMK AO1 SLP112
SPECI CYNL 131908Z AUTO 28009KT 5SM VV011 M07/M09 A2972 RMK AO1 SLP112
SPECI CYNL 131905Z AUTO 28009KT 8SM FEW006 SCT012 BKN018 M07/M10 A2973 RMK AO1 SLP112
SPECI CYNL 131902Z AUTO 28010KT 9SM FEW013 SCT016 BKN019 M07/M10 A2973 RMK AO1 SLP112
METAR CYNL 131900Z AUTO 27007KT 8SM FEW013 SCT015 BKN064 M07/M09 A2973 RMK AO1 SLP113
SPECI CYNL 131847Z AUTO 29006KT 9SM SCT014 BKN064 M07/M09 A2973 RMK AO1 SLP113
SPECI CYNL 131839Z AUTO 28006KT 9SM BKN014 M07/M09 A2973 RMK AO1 SLP113
SPECI CYNL 131834Z AUTO 27007KT 9SM SCT014 BKN068 M07/M09 A2973 RMK AO1 SLP113
SPECI CYNL 131806Z AUTO 27007KT 9SM BKN014 OVC056 M07/M09 A2973 RMK AO1 SLP114
METAR CYNL 131800Z AUTO 26005KT 9SM FEW007 SCT013 BKN019 M07/M09 A2973 RMK AO1 SLP114
SPECI CYNL 131756Z AUTO 26004KT 9SM FEW007 SCT013 BKN020 M07/M09 A2973 RMK AO1 SLP114
SPECI CYNL 131754Z AUTO 27006KT 7SM FEW013 BKN020 OVC058 M07/M09 A2973 RMK AO1 SLP115
SPECI CYNL 131753Z AUTO 26005KT 6SM VV013 M07/M09 A2973 RMK AO1 SLP115
SPECI CYNL 131743Z AUTO 27006KT 3SM VV020 M07/M09 A2973 RMK AO1 SLP115
SPECI CYNL 131740Z AUTO 26005KT 2SM VV019 M07/M09 A2973 RMK AO1 SLP115
SPECI CYNL 131734Z AUTO 27005KT 1 3/4SM VV020 M07/M09 A2974 RMK AO1 SLP116
SPECI CYNL 131718Z AUTO 24006KT 2SM VV018 M07/M09 A2973 RMK AO1 SLP115
SPECI CYNL 131715Z AUTO 25008KT 1 3/4SM OVC016 M07/M09 A2973 RMK AO1 SLP116
SPECI CYNL 131713Z AUTO 25005KT 2 1/2SM FEW010 BKN016 OVC021 M07/M09 A2973 RMK AO1 SLP115
SPECI CYNL 131704Z AUTO 23006KT 3SM FEW009 BKN016 OVC033 M07/M09 A2973 RMK AO1 SLP115
METAR CYNL 131700Z AUTO 23006KT 3SM FEW010 BKN017 OVC034 M07/M09 A2973 RMK AO1 SLP115
SPECI CYNL 131642Z AUTO 22005KT 7SM SCT009 BKN019 OVC034 M08/M09 A2973 RMK AO1 SLP114
SPECI CYNL 131627Z AUTO 22006KT 3SM SCT009 BKN011 BKN014 M08/M10 A2974 RMK AO1 SLP117
SPECI CYNL 131623Z AUTO 23006KT 2 1/2SM VV011 M08/M10 A2974 RMK AO1 SLP118
SPECI CYNL 131622Z AUTO 22005KT 3SM VV011 M08/M10 A2974 RMK AO1 SLP117
SPECI CYNL 131617Z AUTO 22005KT 2SM VV010 M08/M10 A2974 RMK AO1 SLP118
SPECI CYNL 131613Z AUTO 21006KT 1 1/2SM VV011 M08/M10 A2974 RMK AO1 SLP119
SPECI CYNL 131605Z AUTO 21005KT 1 1/4SM VV013 M08/M10 A2974 RMK AO1 SLP118
SPECI CYNL 131604Z AUTO 21005KT 1 1/2SM VV014 M08/M10 A2974 RMK AO1 SLP118
SPECI CYNL 131603Z AUTO 22005KT 1 3/4SM VV015 M08/M10 A2974 RMK AO1 SLP118
SPECI CYNL 131602Z AUTO 21005KT 2 1/2SM VV015 M08/M10 A2974 RMK AO1 SLP118
METAR CYNL 131600Z AUTO 20004KT 3SM VV015 M08/M10 A2974 RMK AO1 SLP118
SPECI CYNL 131555Z AUTO 21005KT 3SM VV016 M08/M10 A2974 RMK AO1 PRESFR SLP119
SPECI CYNL 131554Z AUTO 21005KT 2 1/2SM VV016 M08/M10 A2974 RMK AO1 PRESFR SLP119
SPECI CYNL 131549Z AUTO 21005KT 3SM VV018 M08/M10 A2974 RMK AO1 PRESFR SLP118
SPECI CYNL 131546Z AUTO 20003KT 2SM VV020 M08/M10 A2974 RMK AO1 PRESFR SLP119
SPECI CYNL 131535Z AUTO 23006KT 1 3/4SM VV018 M08/M10 A2975 RMK AO1 PRESFR SLP122
SPECI CYNL 131532Z AUTO 22005KT 2SM VV018 M08/M10 A2975 RMK AO1 PRESFR SLP123
SPECI CYNL 131531Z AUTO 22005KT 1 1/2SM VV018 M08/M10 A2975 RMK AO1 PRESFR SLP123
SPECI CYNL 131529Z AUTO 21005KT 1 1/4SM VV017 M08/M10 A2975 RMK AO1 PRESFR SLP123
SPECI CYNL 131526Z AUTO 21004KT 1 1/2SM VV015 M08/M10 A2975 RMK AO1 PRESFR SLP123
SPECI CYNL 131523Z AUTO 21004KT 1 1/4SM VV015 M08/M10 A2975 RMK AO1 PRESFR SLP124
SPECI CYNL 131521Z AUTO 21005KT 1 1/4SM VV014 M08/M10 A2975 RMK AO1 PRESFR SLP124
SPECI CYNL 131517Z AUTO 20005KT 1 1/4SM VV015 M08/M10 A2975 RMK AO1 PRESFR SLP123
SPECI CYNL 131516Z AUTO 20005KT 1 1/2SM VV015 M08/M10 A2975 RMK AO1 PRESFR SLP123
SPECI CYNL 131508Z AUTO 20005KT 1 1/4SM VV018 M08/M10 A2975 RMK AO1 PRESFR SLP123
SPECI CYNL 131504Z AUTO 20005KT 1 3/4SM VV019 M08/M10 A2975 RMK AO1 PRESFR SLP123
METAR CYNL 131500Z AUTO 20004KT 2 1/2SM FEW010 SCT013 OVC018 M08/M10 A2975 RMK AO1 PRESFR SLP123
SPECI CYNL 131456Z AUTO 19005KT 3SM SCT010 OVC018 M08/M10 A2975 RMK AO1 PRESFR SLP124
SPECI CYNL 131455Z AUTO 19005KT 3SM SCT010 BKN014 OVC018 M08/M10 A2975 RMK AO1 PRESFR SLP124
SPECI CYNL 131451Z AUTO 20006KT 2SM VV014 M08/M10 A2976 RMK AO1 PRESFR SLP125
SPECI CYNL 131444Z AUTO 20005KT 2SM VV015 M08/M10 A2976 RMK AO1 PRESFR SLP126
SPECI CYNL 131443Z AUTO 20005KT 2SM VV014 M08/M10 A2976 RMK AO1 PRESFR SLP127
SPECI CYNL 131429Z AUTO 20006KT 1 3/4SM VV010 M08/M10 A2977 RMK AO1 PRESFR SLP129
SPECI CYNL 131427Z AUTO 19005KT 1 1/2SM VV009 M08/M10 A2977 RMK AO1 PRESFR SLP128
SPECI CYNL 131425Z AUTO 19004KT 1SM VV007 M08/M10 A2976 RMK AO1 PRESFR SLP128
SPECI CYNL 131424Z AUTO 19004KT 3/4SM VV007 M08/M10 A2976 RMK AO1 PRESFR SLP128
SPECI CYNL 131415Z AUTO 19005KT 5/8SM VV008 M08/M10 A2977 RMK AO1 PRESFR SLP130
SPECI CYNL 131414Z AUTO 19004KT 3/4SM VV008 M08/M10 A2977 RMK AO1 PRESFR SLP130
METAR CYNL 131400Z AUTO 20005KT 5/8SM VV009 M09/M10 A2977 RMK AO1 PRESFR SLP131
SPECI CYNL 131335Z AUTO 19005KT 1/2SM VV009 M09/M10 A2978 RMK AO1 PRESFR SLP134
SPECI CYNL 131333Z AUTO 19005KT 5/8SM VV011 M09/M10 A2978 RMK AO1 PRESFR SLP134
SPECI CYNL 131332Z AUTO 19005KT 3/4SM VV012 M09/M10 A2978 RMK AO1 PRESFR SLP134
SPECI CYNL 131331Z AUTO 19005KT 1SM VV013 M09/M10 A2978 RMK AO1 PRESFR SLP134
SPECI CYNL 131330Z AUTO 19005KT 1 1/4SM VV015 M09/M10 A2978 RMK AO1 PRESFR SLP134
SPECI CYNL 131327Z AUTO 19006KT 1 3/4SM VV017 M09/M10 A2978 RMK AO1 PRESFR SLP134
SPECI CYNL 131323Z AUTO 18006KT 2 1/2SM FEW011 OVC019 M09/M10 A2979 RMK AO1 PRESFR SLP135
SPECI CYNL 131322Z AUTO 18006KT 3SM FEW011 OVC019 M09/M10 A2979 RMK AO1 PRESFR SLP135
SPECI CYNL 131319Z AUTO 18005KT 2SM FEW011 OVC020 M09/M10 A2979 RMK AO1 PRESFR SLP136
SPECI CYNL 131315Z AUTO 18006KT 1 3/4SM VV020 M09/M10 A2979 RMK AO1 PRESFR SLP137
SPECI CYNL 131309Z AUTO 18005KT 2 1/2SM FEW011 OVC017 M09/M11 A2979 RMK AO1 PRESFR SLP138
METAR CYNL 131300Z AUTO 17004KT 5SM FEW011 OVC018 M09/M11 A2980 RMK AO1 PRESFR SLP140
SPECI CYNL 131255Z AUTO 16006KT 3SM OVC018 M09/M11 A2980 RMK AO1 PRESFR SLP140
SPECI CYNL 131252Z AUTO 17005KT 2 1/2SM OVC018 M09/M11 A2980 RMK AO1 PRESFR SLP141
SPECI CYNL 131236Z AUTO 16005KT 3SM FEW014 BKN020 OVC024 M09/M11 A2981 RMK AO1 PRESFR SLP145
SPECI CYNL 131233Z AUTO 16004KT 2SM VV017 M09/M11 A2982 RMK AO1 PRESFR SLP146
SPECI CYNL 131232Z AUTO 16005KT 1 3/4SM VV017 M09/M11 A2982 RMK AO1 PRESFR SLP146
SPECI CYNL 131227Z AUTO 16005KT 1 1/4SM VV015 M09/M11 A2982 RMK AO1 PRESFR SLP147
SPECI CYNL 131225Z AUTO 16005KT 1 3/4SM VV018 M09/M11 A2982 RMK AO1 PRESFR SLP147
SPECI CYNL 131220Z AUTO 16006KT 2 1/2SM VV023 M09/M11 A2982 RMK AO1 PRESFR SLP147
SPECI CYNL 131214Z AUTO 16005KT 3SM VV018 M09/M11 A2982 RMK AO1 PRESFR SLP148
SPECI CYNL 131213Z AUTO 16006KT 2SM VV017 M09/M11 A2982 RMK AO1 PRESFR SLP149
SPECI CYNL 131212Z AUTO 16006KT 1 3/4SM VV016 M09/M11 A2982 RMK AO1 PRESFR SLP149
SPECI CYNL 131208Z AUTO 16006KT 1 3/4SM VV014 M09/M11 A2983 RMK AO1 PRESFR SLP149
SPECI CYNL 131205Z AUTO 16006KT 2SM VV013 M09/M11 A2983 RMK AO1 PRESFR SLP150
SPECI CYNL 131201Z AUTO 16006KT 2 1/2SM VV014 M09/M11 A2983 RMK AO1 PRESFR SLP150
METAR CYNL 131200Z AUTO 16006KT 3SM VV014 M09/M11 A2983 RMK AO1 PRESFR SLP150
SPECI CYNL 131157Z AUTO 16005KT 3SM VV015 M09/M11 A2983 RMK AO1 PRESFR SLP150
SPECI CYNL 131150Z AUTO 16007KT 3SM SCT008 OVC011 M09/M11 A2983 RMK AO1 PRESFR SLP151
SPECI CYNL 131147Z AUTO 15006KT 2SM SCT008 BKN010 OVC012 M09/M11 A2983 RMK AO1 PRESFR SLP151
SPECI CYNL 131145Z AUTO 15006KT 1 1/2SM BKN008 OVC012 M09/M11 A2983 RMK AO1 PRESFR SLP151
SPECI CYNL 131144Z AUTO 15006KT 1 1/4SM BKN008 OVC012 M09/M11 A2983 RMK AO1 PRESFR SLP152
SPECI CYNL 131143Z AUTO 15006KT 1 3/4SM BKN008 OVC012 M09/M11 A2983 RMK AO1 PRESFR SLP152
SPECI CYNL 131142Z AUTO 15006KT 2 1/2SM BKN008 OVC012 M09/M11 A2983 RMK AO1 PRESFR SLP152
SPECI CYNL 131130Z AUTO 15006KT 3SM BKN008 OVC010 M09/M11 A2984 RMK AO1 PRESFR SLP155
SPECI CYNL 131129Z AUTO 15006KT 2 1/2SM BKN008 OVC010 M09/M11 A2984 RMK AO1 PRESFR SLP155
SPECI CYNL 131128Z AUTO 15006KT 3SM OVC008 M09/M11 A2984 RMK AO1 PRESFR SLP155
SPECI CYNL 131127Z AUTO 15007KT 2 1/2SM OVC008 M09/M11 A2984 RMK AO1 PRESFR SLP155
SPECI CYNL 131126Z AUTO 15006KT 3SM BKN008 OVC009 M09/M11 A2984 RMK AO1 PRESFR SLP156
SPECI CYNL 131121Z AUTO 15006KT 2SM OVC007 M09/M11 A2985 RMK AO1 PRESFR SLP158
SPECI CYNL 131116Z AUTO 15007KT 1 3/4SM BKN007 OVC009 M09/M11 A2985 RMK AO1 PRESFR SLP159
SPECI CYNL 131113Z AUTO 15006KT 2 1/2SM BKN007 OVC009 M09/M11 A2986 RMK AO1 PRESFR SLP160
SPECI CYNL 131107Z AUTO 15007KT 3SM BKN007 OVC009 M09/M11 A2986 RMK AO1 PRESFR SLP162
SPECI CYNL 131105Z AUTO 15006KT 2SM BKN007 OVC009 M09/M11 A2986 RMK AO1 PRESFR SLP163
SPECI CYNL 131104Z AUTO 15007KT 1 1/2SM BKN007 OVC009 M09/M11 A2987 RMK AO1 PRESFR SLP164
METAR CYNL 131100Z AUTO 16007KT 1SM BKN006 OVC009 M09/M11 A2987 RMK AO1 PRESFR SLP164
SPECI CYNL 131055Z AUTO 17006KT 1 1/4SM OVC006 M09/M11 A2987 RMK AO1 PRESFR SLP166
SPECI CYNL 131053Z AUTO 17007KT 1 3/4SM OVC006 M09/M11 A2988 RMK AO1 PRESFR SLP167
SPECI CYNL 131049Z AUTO ///// 2 1/2SM OVC006 M09/M11 A2988 RMK AO1 PRESFR SLP168
SPECI CYNL 131041Z AUTO ///// 3SM OVC006 M10/M11 A2988 RMK AO1 PRESFR SLP169
SPECI CYNL 131033Z AUTO 16009KT 2 1/2SM BKN006 OVC008 M10/M11 A2988 RMK AO1 PRESFR SLP168
SPECI CYNL 131018Z AUTO 16008KT 9SM BKN007 BKN010 OVC014 M10/M12 A2989 RMK AO1 PRESFR SLP170
SPECI CYNL 131013Z AUTO 16008KT 9SM SCT008 BKN010 OVC014 M10/M12 A2989 RMK AO1 PRESFR SLP170
SPECI CYNL 131008Z AUTO 15009KT 9SM BKN009 OVC014 M10/M12 A2989 RMK AO1 PRESFR SLP172
METAR CYNL 131000Z AUTO 15008KT 3SM FEW007 BKN010 OVC014 M10/M12 A2989 RMK AO1 PRESFR SLP173
SPECI CYNL 130959Z AUTO 14007KT 2 1/2SM FEW007 SCT010 OVC014 M10/M12 A2989 RMK AO1 PRESFR SLP172
SPECI CYNL 130958Z AUTO 14009KT 2SM SCT010 BKN014 OVC017 M10/M12 A2989 RMK AO1 PRESFR SLP172
SPECI CYNL 130957Z AUTO 14009KT 1 3/4SM FEW009 SCT011 BKN014 M10/M12 A2989 RMK AO1 PRESFR SLP172
SPECI CYNL 130955Z AUTO 15007KT 1 1/2SM VV012 M10/M12 A2989 RMK AO1 PRESFR SLP172
SPECI CYNL 130950Z AUTO 14008KT 1SM VV013 M10/M12 A2990 RMK AO1 PRESFR SLP173
SPECI CYNL 130948Z AUTO 14007KT 1 3/4SM VV014 M10/M12 A2990 RMK AO1 PRESFR SLP174
SPECI CYNL 130941Z AUTO 15008KT 2SM VV010 M10/M12 A2991 RMK AO1 PRESFR SLP177
SPECI CYNL 130937Z AUTO 15008KT 1 1/2SM VV013 M10/M12 A2991 RMK AO1 PRESFR SLP178
SPECI CYNL 130933Z AUTO 15008KT 2SM VV013 M10/M12 A2991 RMK AO1 PRESFR SLP180
SPECI CYNL 130929Z AUTO 15007KT 1 1/2SM VV010 M10/M12 A2992 RMK AO1 PRESFR SLP181
SPECI CYNL 130927Z AUTO 15009KT 1 1/2SM VV009 M10/M12 A2992 RMK AO1 PRESFR SLP182
SPECI CYNL 130924Z AUTO 15006KT 1 1/2SM VV011 M10/M12 A2993 RMK AO1 PRESFR SLP184
SPECI CYNL 130916Z AUTO 15009KT 1 1/4SM VV014 M10/M12 A2993 RMK AO1 PRESFR SLP187
SPECI CYNL 130912Z AUTO 16009KT 1 3/4SM VV017 M10/M12 A2993 RMK AO1 PRESFR SLP186
SPECI CYNL 130909Z AUTO 15009KT 2SM VV018 M10/M12 A2993 RMK AO1 PRESFR SLP185
SPECI CYNL 130902Z AUTO 16009KT 1 3/4SM VV015 M10/M12 A2994 RMK AO1 PRESFR SLP189
METAR CYNL 130900Z AUTO 16010KT 1 1/2SM VV013 M10/M12 A2994 RMK AO1 PRESFR SLP189
SPECI CYNL 130859Z AUTO 15009KT 1 3/4SM FEW012 M10/M12 A2994 RMK AO1 PRESFR SLP189
SPECI CYNL 130858Z AUTO 15008KT 2SM FEW013 M10/M12 A2994 RMK AO1 PRESFR SLP189
METAR CYNL 130800Z AUTO 15007KT 9SM FEW007 M10/M12 A2998 RMK AO1 PRESFR SLP203
SPECI CYNL 130704Z AUTO ///// 7SM SCT009 M10/M12 A3002 RMK AO1 PRESFR SLP216
SPECI CYNL 130702Z AUTO 15007G15KT 4SM SCT009 BKN012 M10/M12 A3002 RMK AO1 PRESFR SLP216
SPECI CYNL 130701Z AUTO ///// 3SM BKN009 M10/M12 A3002 RMK AO1 PRESFR SLP216
METAR CYNL 130700Z AUTO ///// 2 1/2SM VV009 M10/M12 A3002 RMK AO1 PRESFR SLP217
SPECI CYNL 130658Z AUTO ///// 2SM VV009 M10/M12 A3002 RMK AO1 PRESFR SLP217
SPECI CYNL 130656Z AUTO 15010KT 1 1/2SM VV009 M10/M12 A3002 RMK AO1 PRESFR SLP218
SPECI CYNL 130652Z AUTO 15008KT 1 1/4SM VV009 M10/M12 A3003 RMK AO1 PRESFR SLP219
SPECI CYNL 130648Z AUTO 15007KT 1 3/4SM VV010 M10/M12 A3003 RMK AO1 PRESFR SLP219
SPECI CYNL 130647Z AUTO 15009KT 2SM VV010 M10/M12 A3003 RMK AO1 PRESFR SLP219
SPECI CYNL 130645Z AUTO 15009KT 2 1/2SM FEW008 SCT050 M10/M12 A3003 RMK AO1 PRESFR SLP219
SPECI CYNL 130642Z AUTO 15008KT 6SM FEW008 M10/M12 A3003 RMK AO1 PRESFR SLP220
METAR CYNL 130600Z AUTO 14007KT 9SM CLR M10/M12 A3005 RMK AO1 PRESFR SLP228
SPECI CYNL 130512Z AUTO 14006KT 9SM SCT020 M10/M12 A3007 RMK AO1 PRESFR SLP234
METAR CYNL 130500Z AUTO 16007KT 9SM BKN019 M10/M12 A3008 RMK AO1 PRESFR SLP238
METAR CYNL 130400Z AUTO 14005KT 9SM OVC020 M10/M13 A3011 RMK AO1 SLP248
METAR CYNL 130300Z AUTO 14004KT 9SM OVC020 M10/M13 A3012 RMK AO1 PRESFR SLP254
METAR CYNL 130200Z AUTO 17004KT 9SM OVC019 M10/M12 A3015 RMK AO1 SLP262
METAR CYNL 130100Z AUTO 17003KT 9SM OVC018 M10/M12 A3017 RMK AO1 SLP268
METAR CYNL 130000Z AUTO 21002KT 9SM OVC017 M10/M13 A3018 RMK AO1 SLP272
METAR CYNL 122300Z AUTO 00000KT 8SM OVC017 M09/M12 A3019 RMK AO1 SLP274
METAR CYNL 122200Z AUTO 25004KT 9SM OVC017 M09/M12 A3020 RMK AO1 SLP279
METAR CYNL 122100Z AUTO 28006KT 7SM OVC019 M09/M12 A3021 RMK AO1 SLP282
METAR CYNL 122000Z AUTO 27003KT 9SM OVC018 M09/M12 A3022 RMK AO1 SLP284
SPECI CYNL 121934Z AUTO 28006KT 3SM VV018 M09/M12 A3022 RMK AO1 SLP285
SPECI CYNL 121933Z AUTO 28006KT 2 1/2SM VV018 M09/M12 A3022 RMK AO1 SLP285
METAR CYNL 121900Z AUTO 29007KT 7SM OVC018 M09/M12 A3022 RMK AO1 SLP286
METAR CYNL 121800Z AUTO 29005KT 9SM OVC021 M09/M12 A3022 RMK AO1 SLP286
METAR CYNL 121700Z AUTO 28005KT 9SM OVC024 M09/M11 A3022 RMK AO1 SLP285
SPECI CYNL 121659Z AUTO 28005KT 9SM OVC024 M09/M11 A3022 RMK AO1 SLP285
SPECI CYNL 121618Z AUTO 25003KT 9SM BKN026 M10/M12 A3021 RMK AO1 SLP284
METAR CYNL 121600Z AUTO 24003KT 9SM FEW025 M10/M12 A3021 RMK AO1 SLP282
SPECI CYNL 121540Z AUTO 24004KT 9SM SCT024 M11/M12 A3021 RMK AO1 SLP281
METAR CYNL 121500Z AUTO 26002KT 9SM OVC024 M10/M12 A3020 RMK AO1 SLP279
METAR CYNL 121400Z AUTO 27003KT 9SM OVC024 M10/M11 A3020 RMK AO1 SLP280
SPECI CYNL 121326Z AUTO 28003KT 9SM FEW007 OVC024 M10/M12 A3020 RMK AO1 SLP278
SPECI CYNL 121315Z AUTO 27002KT 9SM FEW007 OVC025 M10/M12 A3019 RMK AO1 SLP277
METAR CYNL 121300Z AUTO 27003KT 9SM OVC025 M10/M12 A3019 RMK AO1 SLP275
METAR CYNL 121200Z AUTO 30004KT 9SM OVC026 M10/M12 A3018 RMK AO1 SLP272
METAR CYNL 121100Z AUTO 30004KT 9SM OVC026 M10/M12 A3017 RMK AO1 SLP268
METAR CYNL 121000Z AUTO 28004KT 9SM OVC025 M10/M12 A3016 RMK AO1 PRESRR SLP264
SPECI CYNL 120946Z AUTO 28005KT 9SM OVC025 M10/M12 A3015 RMK AO1 PRESRR SLP262
METAR CYNL 120900Z AUTO 30004KT 9SM OVC022 M10/M12 A3013 RMK AO1 PRESRR SLP257
METAR CYNL 120800Z AUTO 31005KT 9SM OVC022 M10/M12 A3011 RMK AO1 PRESRR SLP249
SPECI CYNL 120741Z AUTO 31005KT 9SM SCT008 OVC023 M10/M12 A3011 RMK AO1 PRESRR SLP247
SPECI CYNL 120738Z AUTO 31004KT 9SM SCT008 BKN010 OVC023 M10/M12 A3011 RMK AO1 PRESRR SLP247
METAR CYNL 120700Z AUTO 31008KT 9SM OVC009 M10/M12 A3009 RMK AO1 PRESRR SLP241
SPECI CYNL 120632Z AUTO 30007KT 9SM BKN009 OVC032 M10/M12 A3008 RMK AO1 PRESRR SLP238
SPECI CYNL 120622Z AUTO 31006KT 9SM SCT009 OVC032 M10/M12 A3007 RMK AO1 PRESRR SLP235
METAR CYNL 120600Z AUTO 29007KT 8SM SCT011 OVC032 M10/M12 A3007 RMK AO1 PRESRR SLP235
SPECI CYNL 120557Z AUTO 29007KT 7SM SCT011 OVC032 M10/M12 A3007 RMK AO1 SLP233
SPECI CYNL 120538Z AUTO 30005KT 9SM BKN011 OVC031 M10/M12 A3006 RMK AO1 SLP230
SPECI CYNL 120516Z AUTO 31009KT 9SM SCT011 OVC030 M09/M12 A3005 RMK AO1 SLP227
METAR CYNL 120500Z AUTO 30007KT 8SM BKN012 OVC029 M09/M11 A3004 RMK AO1 SLP224
SPECI CYNL 120433Z AUTO 31007KT 9SM BKN012 OVC030 M09/M11 A3003 RMK AO1 SLP221
SPECI CYNL 120428Z AUTO 29006KT 9SM SCT011 BKN015 OVC030 M09/M11 A3003 RMK AO1 SLP220
METAR CYNL 120400Z AUTO 30006KT 9SM FEW018 OVC031 M09/M11 A3002 RMK AO1 SLP217
SPECI CYNL 120339Z AUTO 29005KT 5SM FEW018 SCT024 OVC033 M09/M11 A3002 RMK AO1 SLP215
SPECI CYNL 120335Z AUTO 29004KT 5SM VV024 M09/M11 A3002 RMK AO1 SLP215
SPECI CYNL 120333Z AUTO 28003KT 4SM VV025 M09/M11 A3002 RMK AO1 SLP215
SPECI CYNL 120319Z AUTO 29003KT 9SM FEW014 SCT022 OVC032 M10/M11 A3001 RMK AO1 SLP214
SPECI CYNL 120302Z AUTO 32003KT 4SM SCT013 BKN016 OVC022 M10/M11 A3001 RMK AO1 SLP213
METAR CYNL 120300Z AUTO 28003KT 4SM BKN013 BKN016 OVC020 M10/M11 A3001 RMK AO1 SLP213
SPECI CYNL 120258Z AUTO 32003KT 3SM BKN014 OVC020 M10/M11 A3001 RMK AO1 SLP213
SPECI CYNL 120257Z AUTO 32003KT 2 1/2SM BKN014 OVC020 M10/M11 A3001 RMK AO1 SLP213
SPECI CYNL 120256Z AUTO 31002KT 2 1/2SM SCT013 BKN015 OVC020 M10/M11 A3001 RMK AO1 SLP213
SPECI CYNL 120254Z AUTO 00000KT 3SM BKN014 OVC021 M10/M11 A3001 RMK AO1 SLP213
SPECI CYNL 120253Z AUTO 00000KT 2 1/2SM BKN014 OVC021 M10/M11 A3001 RMK AO1 SLP213
SPECI CYNL 120252Z AUTO 00000KT 3SM VV018 M10/M11 A3001 RMK AO1 SLP213
SPECI CYNL 120251Z AUTO 31002KT 2 1/2SM VV018 M10/M11 A3001 RMK AO1 SLP212
SPECI CYNL 120238Z AUTO 00000KT 4SM SCT012 OVC019 M10/M11 A3000 RMK AO1 SLP211
SPECI CYNL 120237Z AUTO 00000KT 2 1/2SM SCT012 OVC019 M10/M11 A3000 RMK AO1 SLP211
SPECI CYNL 120236Z AUTO 00000KT 1 1/4SM SCT012 OVC019 M10/M11 A3000 RMK AO1 SLP211
SPECI CYNL 120235Z AUTO 00000KT 1SM VV013 M10/M11 A3000 RMK AO1 SLP211
SPECI CYNL 120234Z AUTO 00000KT 3/4SM VV014 M10/M11 A3000 RMK AO1 SLP211
SPECI CYNL 120233Z AUTO 00000KT 1SM VV015 M10/M11 A3000 RMK AO1 SLP211
SPECI CYNL 120232Z AUTO 00000KT 1 1/2SM VV017 M10/M11 A3000 RMK AO1 SLP211
SPECI CYNL 120230Z AUTO 00000KT 2 1/2SM VV021 M10/M11 A3000 RMK AO1 SLP210
SPECI CYNL 120227Z AUTO 00000KT 3SM VV022 M10/M11 A3000 RMK AO1 SLP210
SPECI CYNL 120226Z AUTO 00000KT 2 1/2SM FEW011 OVC020 M10/M11 A3000 RMK AO1 SLP210
SPECI CYNL 120221Z AUTO 00000KT 3SM SCT012 OVC019 M10/M11 A3000 RMK AO1 SLP210
SPECI CYNL 120219Z AUTO 00000KT 2 1/2SM SCT012 BKN018 OVC021 M10/M11 A3000 RMK AO1 SLP209
SPECI CYNL 120215Z AUTO 00000KT 3SM SCT012 BKN017 OVC020 M10/M11 A3000 RMK AO1 SLP209
SPECI CYNL 120212Z AUTO 00000KT 2 1/2SM VV015 M10/M11 A3000 RMK AO1 SLP209
SPECI CYNL 120211Z AUTO 00000KT 2 1/2SM VV014 M10/M11 A3000 RMK AO1 SLP209
SPECI CYNL 120210Z AUTO 00000KT 3SM VV014 M10/M11 A3000 RMK AO1 SLP209
SPECI CYNL 120207Z AUTO 00000KT 2SM VV014 M10/M11 A3000 RMK AO1 SLP209
SPECI CYNL 120205Z AUTO 00000KT 1 1/4SM VV015 M10/M11 A3000 RMK AO1 SLP209
SPECI CYNL 120204Z AUTO 00000KT 2SM VV015 M10/M11 A3000 RMK AO1 SLP209
SPECI CYNL 120202Z AUTO 00000KT 5SM VV018 M10/M11 A3000 RMK AO1 SLP209
METAR CYNL 120200Z AUTO 00000KT 2SM VV016 M10/M11 A3000 RMK AO1 SLP209
SPECI CYNL 120158Z AUTO 00000KT 2 1/2SM VV015 M10/M11 A3000 RMK AO1 SLP209
SPECI CYNL 120157Z AUTO 00000KT 4SM VV015 M10/M11 A3000 RMK AO1 SLP209
SPECI CYNL 120152Z AUTO 00000KT 3SM VV014 M10/M12 A3000 RMK AO1 SLP209
SPECI CYNL 120149Z AUTO 00000KT 2 1/2SM VV014 M10/M12 A3000 RMK AO1 SLP209
SPECI CYNL 120148Z AUTO 00000KT 3SM VV015 M10/M12 A3000 RMK AO1 SLP209
SPECI CYNL 120147Z AUTO 00000KT 1 3/4SM VV014 M10/M12 A3000 RMK AO1 SLP209
SPECI CYNL 120145Z AUTO 00000KT 1 3/4SM VV016 M10/M12 A3000 RMK AO1 SLP209
SPECI CYNL 120141Z AUTO 00000KT 3SM VV018 M10/M12 A3000 RMK AO1 SLP209
SPECI CYNL 120139Z AUTO 00000KT 2 1/2SM VV022 M10/M12 A3000 RMK AO1 SLP209
SPECI CYNL 120132Z AUTO 00000KT 5SM VV016 M10/M12 A3000 RMK AO1 SLP210
SPECI CYNL 120131Z AUTO 19002KT 4SM VV014 M10/M12 A3000 RMK AO1 SLP210
METAR CYNL 120100Z AUTO 18003KT 9SM FEW008 OVC034 M10/M12 A3000 RMK AO1 SLP209
SPECI CYNL 120044Z AUTO 19002KT 9SM FEW008 OVC035 M10/M12 A3000 RMK AO1 SLP209
METAR CYNL 120000Z AUTO 19003KT 7SM SCT023 OVC031 M10/M12 A3000 RMK AO1 SLP208
METAR CYNL 112300Z AUTO 17005KT 6SM OVC033 M10/M12 A2999 RMK AO1 SLP207
METAR CYNL 112200Z AUTO 19004KT 9SM FEW010 BKN033 OVC056 M10/M13 A3000 RMK AO1 SLP209
SPECI CYNL 112141Z AUTO 17004KT 9SM FEW010 BKN030 OVC056 M10/M13 A2999 RMK AO1 SLP207
SPECI CYNL 112135Z AUTO 17003KT 9SM FEW008 BKN028 OVC056 M10/M13 A2999 RMK AO1 SLP207
SPECI CYNL 112101Z AUTO 19004KT 9SM BKN025 M10/M13 A3000 RMK AO1 SLP210
METAR CYNL 112100Z AUTO 19004KT 9SM BKN024 M10/M13 A3000 RMK AO1 SLP210
SPECI CYNL 112056Z AUTO 19004KT 9SM BKN024 M10/M13 A3000 RMK AO1 SLP210
METAR CYNL 112000Z AUTO 23003KT 9SM CLR M09/M14 A3000 RMK AO1 SLP210
SPECI CYNL 111935Z AUTO 21004KT 9SM FEW008 SCT013 M09/M13 A3001 RMK AO1 SLP211
SPECI CYNL 111927Z AUTO 21003KT 9SM FEW006 SCT009 BKN013 M09/M13 A3001 RMK AO1 SLP213
SPECI CYNL 111920Z AUTO 22005KT 9SM VV009 M10/M13 A3001 RMK AO1 SLP214
SPECI CYNL 111916Z AUTO 22006KT 9SM FEW008 OVC013 M10/M13 A3001 RMK AO1 SLP214
METAR CYNL 111900Z AUTO 23006KT 7SM OVC014 M10/M13 A3002 RMK AO1 SLP216
METAR CYNL 111800Z AUTO 23005KT 9SM OVC012 M10/M13 A3002 RMK AO1 SLP215
SPECI CYNL 111727Z AUTO 22005KT 9SM FEW006 OVC011 M10/M12 A3002 RMK AO1 SLP216
METAR CYNL 111700Z AUTO 23006KT 9SM OVC011 M10/M12 A3003 RMK AO1 SLP219
SPECI CYNL 111627Z AUTO 22004KT 9SM OVC010 M10/M12 A3003 RMK AO1 SLP218
METAR CYNL 111600Z AUTO 23005KT 7SM OVC008 M10/M12 A3001 RMK AO1 SLP213
METAR CYNL 111500Z AUTO 25003KT 9SM OVC008 M10/M12 A3000 RMK AO1 SLP209
METAR CYNL 111400Z AUTO 27005KT 9SM OVC008 M10/M12 A2999 RMK AO1 SLP208
METAR CYNL 111300Z AUTO 28003KT 9SM OVC008 M10/M12 A2999 RMK AO1 SLP206
METAR CYNL 111200Z AUTO 29005KT 9SM OVC008 M10/M12 A2998 RMK AO1 SLP201
METAR CYNL 111100Z AUTO 28005KT 9SM OVC009 M09/M11 A2997 RMK AO1 SLP196
SPECI CYNL 111047Z AUTO 29005KT 9SM OVC009 M09/M12 A2996 RMK AO1 SLP194
METAR CYNL 111000Z AUTO 28006KT 9SM OVC011 M09/M12 A2995 RMK AO1 SLP189
METAR CYNL 110900Z AUTO 31005KT 9SM OVC012 M09/M12 A2993 RMK AO1 SLP184
METAR CYNL 110800Z AUTO 30004KT 9SM OVC013 M09/M12 A2992 RMK AO1 SLP180
METAR CYNL 110700Z AUTO 30006KT 9SM OVC012 M09/M12 A2991 RMK AO1 SLP177
METAR CYNL 110600Z AUTO 32006KT 9SM OVC012 M09/M12 A2990 RMK AO1 PRESRR SLP172
METAR CYNL 110500Z AUTO 32005KT 9SM OVC012 M09/M12 A2987 RMK AO1 SLP164
METAR CYNL 110400Z AUTO 32004KT 9SM OVC011 M09/M12 A2986 RMK AO1 SLP161
METAR CYNL 110300Z AUTO 31006KT 9SM OVC010 M10/M12 A2985 RMK AO1 SLP161
SPECI CYNL 110250Z AUTO 33005KT 9SM OVC010 M10/M12 A2985 RMK AO1 PRESRR SLP160
METAR CYNL 110200Z AUTO 34006KT 9SM OVC009 M09/M11 A2984 RMK AO1 PRESRR SLP155
SPECI CYNL 110106Z AUTO 34005KT 9SM OVC009 M09/M11 A2982 RMK AO1 PRESRR SLP148
METAR CYNL 110100Z AUTO 33004KT 9SM OVC010 M09/M11 A2981 RMK AO1 PRESRR SLP147
METAR CYNL 110000Z AUTO 35006KT 9SM OVC011 M08/M10 A2979 RMK AO1 PRESRR SLP140
METAR CYNL 102300Z AUTO 32006KT 9SM OVC013 M08/M10 A2977 RMK AO1 PRESRR SLP133
SPECI CYNL 102242Z AUTO 30004KT 9SM FEW010 BKN014 OVC018 M08/M10 A2976 RMK AO1 PRESRR SLP131
SPECI CYNL 102239Z AUTO 31003KT 9SM FEW010 SCT013 OVC018 M08/M10 A2976 RMK AO1 PRESRR SLP131
SPECI CYNL 102223Z AUTO 32003KT 9SM BKN010 OVC020 M08/M10 A2976 RMK AO1 PRESRR SLP129
SPECI CYNL 102217Z AUTO 31003KT 9SM BKN009 OVC021 M08/M10 A2976 RMK AO1 PRESRR SLP128
SPECI CYNL 102216Z AUTO 32004KT 8SM SCT009 BKN012 OVC021 M08/M10 A2976 RMK AO1 PRESRR SLP127
SPECI CYNL 102213Z AUTO 31003KT 9SM BKN009 OVC021 M08/M10 A2975 RMK AO1 PRESRR SLP127
SPECI CYNL 102212Z AUTO 31004KT 9SM SCT009 BKN010 OVC021 M08/M10 A2975 RMK AO1 PRESRR SLP127
SPECI CYNL 102210Z AUTO 31003KT 9SM BKN009 OVC022 M08/M10 A2975 RMK AO1 PRESRR SLP126
SPECI CYNL 102208Z AUTO 32002KT 9SM SCT009 BKN013 OVC022 M08/M10 A2975 RMK AO1 PRESRR SLP126
SPECI CYNL 102207Z AUTO 32002KT 9SM SCT009 OVC022 M08/M10 A2975 RMK AO1 PRESRR SLP126
SPECI CYNL 102203Z AUTO 32003KT 7SM SCT009 BKN013 OVC022 M08/M10 A2975 RMK AO1 PRESRR SLP125
METAR CYNL 102200Z AUTO 32005KT 9SM SCT010 OVC022 M08/M10 A2975 RMK AO1 PRESRR SLP125
SPECI CYNL 102141Z AUTO 31004KT 9SM SCT010 OVC023 M08/M10 A2974 RMK AO1 PRESRR SLP122
SPECI CYNL 102122Z AUTO 32005KT 9SM FEW010 OVC024 M08/M10 A2973 RMK AO1 PRESRR SLP120
METAR CYNL 102100Z AUTO 32004KT 9SM FEW010 OVC026 M08/M10 A2973 RMK AO1 PRESRR SLP117
METAR CYNL 102000Z AUTO 31005KT 9SM OVC028 M08/M10 A2971 RMK AO1 SLP111
SPECI CYNL 101931Z AUTO 28006KT 6SM SCT018 OVC026 M08/M10 A2970 RMK AO1 SLP110
SPECI CYNL 101908Z AUTO 29005KT 6SM SCT013 OVC016 M08/M10 A2970 RMK AO1 SLP109
METAR CYNL 101900Z AUTO 29004KT 9SM OVC013 M08/M11 A2970 RMK AO1 SLP109
SPECI CYNL 101819Z AUTO 25005KT 9SM BKN014 OVC035 M09/M11 A2969 RMK AO1 SLP109
SPECI CYNL 101812Z AUTO 26003KT 9SM FEW011 BKN016 OVC035 M09/M11 A2969 RMK AO1 SLP110
METAR CYNL 101800Z AUTO 25003KT 9SM FEW011 OVC035 M09/M11 A2969 RMK AO1 SLP109
METAR CYNL 101700Z AUTO 23003KT 9SM FEW006 SCT011 BKN058 M09/M12 A2969 RMK AO1 SLP111
SPECI CYNL 101652Z AUTO 22003KT 9SM SCT006 BKN058 M10/M12 A2969 RMK AO1 SLP112
SPECI CYNL 101648Z AUTO 22002KT 8SM VV007 M10/M12 A2969 RMK AO1 SLP112
SPECI CYNL 101647Z AUTO 22002KT 7SM SCT007 BKN014 OVC058 M10/M12 A2969 RMK AO1 SLP112
SPECI CYNL 101636Z AUTO 21004KT 6SM FEW007 SCT012 OVC058 M10/M13 A2969 RMK AO1 SLP112
SPECI CYNL 101628Z AUTO 22003KT 6SM FEW006 SCT008 BKN012 M11/M13 A2970 RMK AO1 SLP113
SPECI CYNL 101623Z AUTO 22004KT 3SM VV007 M11/M13 A2970 RMK AO1 SLP114
SPECI CYNL 101618Z AUTO 22004KT 2SM VV009 M11/M13 A2970 RMK AO1 SLP113
SPECI CYNL 101617Z AUTO 21003KT 2SM VV010 M11/M13 A2970 RMK AO1 SLP113
SPECI CYNL 101616Z AUTO 21004KT 1 3/4SM VV010 M11/M13 A2970 RMK AO1 SLP113